PWSweather.com
Personal Weather Stations
Station Observations
BAYOB95643
TirschenreuthDE 95643

TirschenreuthDE 95643

Lat: 49.8808388, Lon: 12.3298658

Elevation: 1637

Station Type: Davis Vantage Pro2+ Aktiv

http://www.tirschenreuth-wetter.de

Latest ConditionsUpdated 9:48:01 PM GMT+01:01 Wednesday, Apr 24, 2019
Currently Today's Max Today's Min Today's Average
Temperature 63.7°F17.6°C 73.9°F23.3°C 47.8°F8.8°C 60.5°F15.8°C
Dew Point 52.1°F11.2°C 52.3°F11.3°C 44.3°F6.8°C 48.2°F9.0°C
Winds Calm Calm 6.0 mph -9.7 kmh - - 2.4 mph 3.9 kmh
Wind Gusts 3.0 mph4.8 kmh 18.0 mph29.0 kmh - -
Humidity 66% 88% 42% 66%
Pressure 29.68 in1005.1 mb 29.71 in1006.1 mb 29.62 in1003.0 mb -
Hour Temp Dew Point Humidity Winds Wind Gusts Pressure Precip Precip Rate Daily Precip Total
09:48 PM 63.7°F17.6°C 52.1°F11.2°C 66% Calm Calm 3.0 mph4.8 kmh 29.68 in1005.1 mb 0.00 in0.0 mm 0.00 in0.0 mm 0.00 in0.0 mm
09:46 PM 63.7°F17.6°C 52.1°F11.2°C 66% Calm Calm 3.0 mph4.8 kmh 29.68 in1005.1 mb 0.00 in0.0 mm 0.00 in0.0 mm 0.00 in0.0 mm
09:44 PM 63.7°F17.6°C 52.1°F11.2°C 66% Calm Calm 3.0 mph4.8 kmh 29.68 in1005.1 mb 0.00 in0.0 mm 0.00 in0.0 mm 0.00 in0.0 mm
09:42 PM 63.9°F17.7°C 51.9°F11.1°C 65% Calm Calm 3.0 mph4.8 kmh 29.68 in1005.1 mb 0.00 in0.0 mm 0.00 in0.0 mm 0.00 in0.0 mm
09:40 PM 63.9°F17.7°C 51.9°F11.1°C 65% Calm Calm 3.0 mph4.8 kmh 29.68 in1005.1 mb 0.00 in0.0 mm 0.00 in0.0 mm 0.00 in0.0 mm
09:38 PM 63.9°F17.7°C 51.9°F11.1°C 65% Calm Calm 3.0 mph4.8 kmh 29.68 in1005.1 mb 0.00 in0.0 mm 0.00 in0.0 mm 0.00 in0.0 mm
09:36 PM 64.0°F17.8°C 52.0°F11.1°C 65% Calm Calm 3.0 mph4.8 kmh 29.67 in1004.7 mb 0.00 in0.0 mm 0.00 in0.0 mm 0.00 in0.0 mm
09:34 PM 64.0°F17.8°C 51.6°F10.9°C 64% Calm Calm 3.0 mph4.8 kmh 29.67 in1004.7 mb 0.00 in0.0 mm 0.00 in0.0 mm 0.00 in0.0 mm
09:32 PM 64.0°F17.8°C 51.6°F10.9°C 64% Calm Calm 6.0 mph9.7 kmh 29.67 in1004.7 mb 0.00 in0.0 mm 0.00 in0.0 mm 0.00 in0.0 mm
09:30 PM 64.2°F17.9°C 51.8°F11.0°C 64% Calm Calm 6.0 mph9.7 kmh 29.67 in1004.7 mb 0.00 in0.0 mm 0.00 in0.0 mm 0.00 in0.0 mm
09:28 PM 64.2°F17.9°C 51.8°F11.0°C 64% Calm Calm 6.0 mph9.7 kmh 29.67 in1004.7 mb 0.00 in0.0 mm 0.00 in0.0 mm 0.00 in0.0 mm
09:26 PM 64.2°F17.9°C 51.8°F11.0°C 64% Calm Calm 6.0 mph9.7 kmh 29.67 in1004.7 mb 0.00 in0.0 mm 0.00 in0.0 mm 0.00 in0.0 mm
09:24 PM 64.4°F18.0°C 52.0°F11.1°C 64% Calm Calm 6.0 mph9.7 kmh 29.67 in1004.7 mb 0.00 in0.0 mm 0.00 in0.0 mm 0.00 in0.0 mm
09:22 PM 64.4°F18.0°C 52.0°F11.1°C 64% Calm Calm -- 29.67 in1004.7 mb 0.00 in0.0 mm 0.00 in0.0 mm 0.00 in0.0 mm
09:20 PM 64.6°F18.1°C 52.1°F11.2°C 64% 1.0 mph 1.6 kmh -- 29.67 in1004.7 mb 0.00 in0.0 mm 0.00 in0.0 mm 0.00 in0.0 mm
09:18 PM 64.6°F18.1°C 52.1°F11.2°C 64% 1.0 mph 1.6 kmh -- 29.67 in1004.7 mb 0.00 in0.0 mm 0.00 in0.0 mm 0.00 in0.0 mm
09:16 PM 64.8°F18.2°C 52.3°F11.3°C 64% 2.0 mph ESE3.2 kmh ESE 5.0 mph8.0 kmh 29.67 in1004.7 mb 0.00 in0.0 mm 0.00 in0.0 mm 0.00 in0.0 mm
09:14 PM 64.8°F18.2°C 52.3°F11.3°C 64% 3.0 mph ESE4.8 kmh ESE 6.0 mph9.7 kmh 29.67 in1004.7 mb 0.00 in0.0 mm 0.00 in0.0 mm 0.00 in0.0 mm
09:12 PM 64.9°F18.3°C 52.0°F11.1°C 63% 3.0 mph E4.8 kmh E 7.0 mph11.3 kmh 29.68 in1005.1 mb 0.00 in0.0 mm 0.00 in0.0 mm 0.00 in0.0 mm
09:10 PM 65.1°F18.4°C 52.2°F11.2°C 63% 3.0 mph E4.8 kmh E 9.0 mph14.5 kmh 29.68 in1005.1 mb 0.00 in0.0 mm 0.00 in0.0 mm 0.00 in0.0 mm
09:08 PM 65.1°F18.4°C 52.2°F11.2°C 63% 4.0 mph E6.4 kmh E 11.0 mph17.7 kmh 29.68 in1005.1 mb 0.00 in0.0 mm 0.00 in0.0 mm 0.00 in0.0 mm
09:06 PM 65.1°F18.4°C 52.2°F11.2°C 63% 3.0 mph E4.8 kmh E 11.0 mph17.7 kmh 29.68 in1005.1 mb 0.00 in0.0 mm 0.00 in0.0 mm 0.00 in0.0 mm
09:04 PM 65.1°F18.4°C 52.2°F11.2°C 63% 3.0 mph E4.8 kmh E 11.0 mph17.7 kmh 29.68 in1005.1 mb 0.00 in0.0 mm 0.00 in0.0 mm 0.00 in0.0 mm
09:02 PM 65.1°F18.4°C 52.2°F11.2°C 63% 2.0 mph E3.2 kmh E 11.0 mph17.7 kmh 29.67 in1004.7 mb 0.00 in0.0 mm 0.00 in0.0 mm 0.00 in0.0 mm
09:00 PM 64.9°F18.3°C 52.0°F11.1°C 63% 2.0 mph E3.2 kmh E 11.0 mph17.7 kmh 29.67 in1004.7 mb 0.00 in0.0 mm 0.00 in0.0 mm 0.00 in0.0 mm
08:58 PM 64.9°F18.3°C 52.0°F11.1°C 63% 1.0 mph ESE1.6 kmh ESE 10.0 mph16.1 kmh 29.67 in1004.7 mb 0.00 in0.0 mm 0.00 in0.0 mm 0.00 in0.0 mm
08:56 PM 64.8°F18.2°C 51.9°F11.1°C 63% 1.0 mph SE1.6 kmh SE 8.0 mph12.9 kmh 29.67 in1004.7 mb 0.00 in0.0 mm 0.00 in0.0 mm 0.00 in0.0 mm
08:54 PM 64.9°F18.3°C 52.0°F11.1°C 63% 1.0 mph SE1.6 kmh SE 8.0 mph12.9 kmh 29.67 in1004.7 mb 0.00 in0.0 mm 0.00 in0.0 mm 0.00 in0.0 mm
08:52 PM 64.9°F18.3°C 52.0°F11.1°C 63% 1.0 mph SE1.6 kmh SE 8.0 mph12.9 kmh 29.67 in1004.7 mb 0.00 in0.0 mm 0.00 in0.0 mm 0.00 in0.0 mm
08:50 PM 65.1°F18.4°C 52.2°F11.2°C 63% 1.0 mph E1.6 kmh E 8.0 mph12.9 kmh 29.67 in1004.7 mb 0.00 in0.0 mm 0.00 in0.0 mm 0.00 in0.0 mm
08:48 PM 65.1°F18.4°C 52.2°F11.2°C 63% 1.0 mph E1.6 kmh E 8.0 mph12.9 kmh 29.67 in1004.7 mb 0.00 in0.0 mm 0.00 in0.0 mm 0.00 in0.0 mm
08:46 PM 65.3°F18.5°C 51.9°F11.1°C 62% 1.0 mph E1.6 kmh E 8.0 mph12.9 kmh 29.67 in1004.7 mb 0.00 in0.0 mm 0.00 in0.0 mm 0.00 in0.0 mm
08:44 PM 65.5°F18.6°C 52.1°F11.2°C 62% 1.0 mph ESE1.6 kmh ESE 8.0 mph12.9 kmh 29.67 in1004.7 mb 0.00 in0.0 mm 0.00 in0.0 mm 0.00 in0.0 mm
08:42 PM 65.5°F18.6°C 52.1°F11.2°C 62% 1.0 mph ESE1.6 kmh ESE 8.0 mph12.9 kmh 29.67 in1004.7 mb 0.00 in0.0 mm 0.00 in0.0 mm 0.00 in0.0 mm
08:40 PM 65.5°F18.6°C 52.1°F11.2°C 62% 1.0 mph SE1.6 kmh SE 8.0 mph12.9 kmh 29.67 in1004.7 mb 0.00 in0.0 mm 0.00 in0.0 mm 0.00 in0.0 mm
08:38 PM 65.5°F18.6°C 52.1°F11.2°C 62% 2.0 mph SE3.2 kmh SE 6.0 mph9.7 kmh 29.67 in1004.7 mb 0.00 in0.0 mm 0.00 in0.0 mm 0.00 in0.0 mm
08:36 PM 65.5°F18.6°C 52.1°F11.2°C 62% 2.0 mph SE3.2 kmh SE 6.0 mph9.7 kmh 29.67 in1004.7 mb 0.00 in0.0 mm 0.00 in0.0 mm 0.00 in0.0 mm
08:34 PM 65.5°F18.6°C 51.7°F10.9°C 61% 2.0 mph SE3.2 kmh SE 7.0 mph11.3 kmh 29.67 in1004.7 mb 0.00 in0.0 mm 0.00 in0.0 mm 0.00 in0.0 mm
08:32 PM 65.7°F18.7°C 51.8°F11.0°C 61% 2.0 mph ESE3.2 kmh ESE 7.0 mph11.3 kmh 29.67 in1004.7 mb 0.00 in0.0 mm 0.00 in0.0 mm 0.00 in0.0 mm
08:30 PM 65.7°F18.7°C 51.8°F11.0°C 61% 2.0 mph E3.2 kmh E 7.0 mph11.3 kmh 29.67 in1004.7 mb 0.00 in0.0 mm 0.00 in0.0 mm 0.00 in0.0 mm
08:28 PM 65.7°F18.7°C 51.8°F11.0°C 61% 2.0 mph E3.2 kmh E 7.0 mph11.3 kmh 29.66 in1004.4 mb 0.00 in0.0 mm 0.00 in0.0 mm 0.00 in0.0 mm
08:26 PM 65.8°F18.8°C 52.0°F11.1°C 61% 2.0 mph E3.2 kmh E 7.0 mph11.3 kmh 29.66 in1004.4 mb 0.00 in0.0 mm 0.00 in0.0 mm 0.00 in0.0 mm
08:24 PM 65.8°F18.8°C 52.0°F11.1°C 61% 2.0 mph E3.2 kmh E 7.0 mph11.3 kmh 29.66 in1004.4 mb 0.00 in0.0 mm 0.00 in0.0 mm 0.00 in0.0 mm
08:22 PM 65.8°F18.8°C 52.0°F11.1°C 61% 2.0 mph E3.2 kmh E 7.0 mph11.3 kmh 29.66 in1004.4 mb 0.00 in0.0 mm 0.00 in0.0 mm 0.00 in0.0 mm
08:20 PM 65.7°F18.7°C 51.8°F11.0°C 61% 2.0 mph ESE3.2 kmh ESE 10.0 mph16.1 kmh 29.66 in1004.4 mb 0.00 in0.0 mm 0.00 in0.0 mm 0.00 in0.0 mm
08:18 PM 65.8°F18.8°C 52.0°F11.1°C 61% 2.0 mph ESE3.2 kmh ESE 10.0 mph16.1 kmh 29.66 in1004.4 mb 0.00 in0.0 mm 0.00 in0.0 mm 0.00 in0.0 mm
08:16 PM 65.8°F18.8°C 52.0°F11.1°C 61% 2.0 mph ESE3.2 kmh ESE 10.0 mph16.1 kmh 29.66 in1004.4 mb 0.00 in0.0 mm 0.00 in0.0 mm 0.00 in0.0 mm
08:14 PM 65.8°F18.8°C 52.0°F11.1°C 61% 2.0 mph ESE3.2 kmh ESE 8.0 mph12.9 kmh 29.66 in1004.4 mb 0.00 in0.0 mm 0.00 in0.0 mm 0.00 in0.0 mm
08:12 PM 65.8°F18.8°C 52.0°F11.1°C 61% 3.0 mph E4.8 kmh E 8.0 mph12.9 kmh 29.66 in1004.4 mb 0.00 in0.0 mm 0.00 in0.0 mm 0.00 in0.0 mm
08:10 PM 66.0°F18.9°C 51.7°F10.9°C 60% 3.0 mph E4.8 kmh E 8.0 mph12.9 kmh 29.66 in1004.4 mb 0.00 in0.0 mm 0.00 in0.0 mm 0.00 in0.0 mm
08:08 PM 66.0°F18.9°C 51.7°F10.9°C 60% 3.0 mph E4.8 kmh E 12.0 mph19.3 kmh 29.66 in1004.4 mb 0.00 in0.0 mm 0.00 in0.0 mm 0.00 in0.0 mm
08:06 PM 66.0°F18.9°C 51.7°F10.9°C 60% 3.0 mph E4.8 kmh E 12.0 mph19.3 kmh 29.66 in1004.4 mb 0.00 in0.0 mm 0.00 in0.0 mm 0.00 in0.0 mm
08:04 PM 66.2°F19.0°C 51.9°F11.1°C 60% 3.0 mph E4.8 kmh E 12.0 mph19.3 kmh 29.66 in1004.4 mb 0.00 in0.0 mm 0.00 in0.0 mm 0.00 in0.0 mm
08:02 PM 66.2°F19.0°C 51.9°F11.1°C 60% 2.0 mph ESE3.2 kmh ESE 12.0 mph19.3 kmh 29.65 in1004.1 mb 0.00 in0.0 mm 0.00 in0.0 mm 0.00 in0.0 mm
08:00 PM 66.2°F19.0°C 51.4°F10.8°C 59% 2.0 mph ESE3.2 kmh ESE 12.0 mph19.3 kmh 29.65 in1004.1 mb 0.00 in0.0 mm 0.00 in0.0 mm 0.00 in0.0 mm
07:58 PM 66.2°F19.0°C 51.4°F10.8°C 59% 2.0 mph ESE3.2 kmh ESE 11.0 mph17.7 kmh 29.65 in1004.1 mb 0.00 in0.0 mm 0.00 in0.0 mm 0.00 in0.0 mm
07:56 PM 66.4°F19.1°C 51.6°F10.9°C 59% 2.0 mph ESE3.2 kmh ESE 11.0 mph17.7 kmh 29.65 in1004.1 mb 0.00 in0.0 mm 0.00 in0.0 mm 0.00 in0.0 mm
07:54 PM 66.4°F19.1°C 51.6°F10.9°C 59% 2.0 mph E3.2 kmh E 11.0 mph17.7 kmh 29.65 in1004.1 mb 0.00 in0.0 mm 0.00 in0.0 mm 0.00 in0.0 mm
07:52 PM 66.6°F19.2°C 51.8°F11.0°C 59% 2.0 mph E3.2 kmh E 11.0 mph17.7 kmh 29.65 in1004.1 mb 0.00 in0.0 mm 0.00 in0.0 mm 0.00 in0.0 mm
07:50 PM 66.6°F19.2°C 51.8°F11.0°C 59% 2.0 mph E3.2 kmh E 11.0 mph17.7 kmh 29.65 in1004.1 mb 0.00 in0.0 mm 0.00 in0.0 mm 0.00 in0.0 mm
07:48 PM 66.7°F19.3°C 52.0°F11.1°C 59% 2.0 mph E3.2 kmh E 10.0 mph16.1 kmh 29.65 in1004.1 mb 0.00 in0.0 mm 0.00 in0.0 mm 0.00 in0.0 mm
07:46 PM 66.7°F19.3°C 51.5°F10.8°C 58% 3.0 mph E4.8 kmh E 10.0 mph16.1 kmh 29.65 in1004.1 mb 0.00 in0.0 mm 0.00 in0.0 mm 0.00 in0.0 mm
07:44 PM 66.7°F19.3°C 51.5°F10.8°C 58% 3.0 mph ESE4.8 kmh ESE 10.0 mph16.1 kmh 29.65 in1004.1 mb 0.00 in0.0 mm 0.00 in0.0 mm 0.00 in0.0 mm
07:42 PM 66.9°F19.4°C 51.7°F10.9°C 58% 3.0 mph ESE4.8 kmh ESE 10.0 mph16.1 kmh 29.65 in1004.1 mb 0.00 in0.0 mm 0.00 in0.0 mm 0.00 in0.0 mm
07:40 PM 66.9°F19.4°C 51.7°F10.9°C 58% 3.0 mph ESE4.8 kmh ESE 11.0 mph17.7 kmh 29.65 in1004.1 mb 0.00 in0.0 mm 0.00 in0.0 mm 0.00 in0.0 mm
07:38 PM 66.9°F19.4°C 51.7°F10.9°C 58% 4.0 mph E6.4 kmh E 11.0 mph17.7 kmh 29.65 in1004.1 mb 0.00 in0.0 mm 0.00 in0.0 mm 0.00 in0.0 mm
07:36 PM 66.9°F19.4°C 51.7°F10.9°C 58% 4.0 mph E6.4 kmh E 11.0 mph17.7 kmh 29.64 in1003.7 mb 0.00 in0.0 mm 0.00 in0.0 mm 0.00 in0.0 mm
07:34 PM 66.9°F19.4°C 51.2°F10.7°C 57% 4.0 mph E6.4 kmh E 11.0 mph17.7 kmh 29.64 in1003.7 mb 0.00 in0.0 mm 0.00 in0.0 mm 0.00 in0.0 mm
07:32 PM 66.9°F19.4°C 51.2°F10.7°C 57% 3.0 mph E4.8 kmh E 11.0 mph17.7 kmh 29.64 in1003.7 mb 0.00 in0.0 mm 0.00 in0.0 mm 0.00 in0.0 mm
07:30 PM 67.1°F19.5°C 51.4°F10.8°C 57% 3.0 mph ESE4.8 kmh ESE 11.0 mph17.7 kmh 29.64 in1003.7 mb 0.00 in0.0 mm 0.00 in0.0 mm 0.00 in0.0 mm
07:28 PM 67.3°F19.6°C 51.5°F10.8°C 57% 3.0 mph ESE4.8 kmh ESE 11.0 mph17.7 kmh 29.64 in1003.7 mb 0.00 in0.0 mm 0.00 in0.0 mm 0.00 in0.0 mm
07:26 PM 67.3°F19.6°C 51.5°F10.8°C 57% 4.0 mph ESE6.4 kmh ESE 11.0 mph17.7 kmh 29.64 in1003.7 mb 0.00 in0.0 mm 0.00 in0.0 mm 0.00 in0.0 mm
07:24 PM 67.3°F19.6°C 51.5°F10.8°C 57% 4.0 mph ESE6.4 kmh ESE 11.0 mph17.7 kmh 29.64 in1003.7 mb 0.00 in0.0 mm 0.00 in0.0 mm 0.00 in0.0 mm
07:22 PM 67.5°F19.7°C 51.7°F10.9°C 57% 4.0 mph ESE6.4 kmh ESE 11.0 mph17.7 kmh 29.64 in1003.7 mb 0.00 in0.0 mm 0.00 in0.0 mm 0.00 in0.0 mm
07:20 PM 67.5°F19.7°C 51.2°F10.7°C 56% 4.0 mph ESE6.4 kmh ESE 11.0 mph17.7 kmh 29.64 in1003.7 mb 0.00 in0.0 mm 0.00 in0.0 mm 0.00 in0.0 mm
07:18 PM 67.5°F19.7°C 51.2°F10.7°C 56% 4.0 mph ESE6.4 kmh ESE 14.0 mph22.5 kmh 29.63 in1003.4 mb 0.00 in0.0 mm 0.00 in0.0 mm 0.00 in0.0 mm
07:16 PM 67.5°F19.7°C 51.2°F10.7°C 56% 4.0 mph ESE6.4 kmh ESE 15.0 mph24.1 kmh 29.63 in1003.4 mb 0.00 in0.0 mm 0.00 in0.0 mm 0.00 in0.0 mm
07:14 PM 67.6°F19.8°C 51.4°F10.8°C 56% 4.0 mph E6.4 kmh E 15.0 mph24.1 kmh 29.63 in1003.4 mb 0.00 in0.0 mm 0.00 in0.0 mm 0.00 in0.0 mm
07:12 PM 67.6°F19.8°C 51.4°F10.8°C 56% 4.0 mph E6.4 kmh E 15.0 mph24.1 kmh 29.63 in1003.4 mb 0.00 in0.0 mm 0.00 in0.0 mm 0.00 in0.0 mm
07:10 PM 67.8°F19.9°C 51.1°F10.6°C 55% 4.0 mph E6.4 kmh E 15.0 mph24.1 kmh 29.63 in1003.4 mb 0.00 in0.0 mm 0.00 in0.0 mm 0.00 in0.0 mm
07:08 PM 67.8°F19.9°C 51.1°F10.6°C 55% 4.0 mph E6.4 kmh E 15.0 mph24.1 kmh 29.63 in1003.4 mb 0.00 in0.0 mm 0.00 in0.0 mm 0.00 in0.0 mm
07:06 PM 67.8°F19.9°C 51.1°F10.6°C 55% 4.0 mph E6.4 kmh E 14.0 mph22.5 kmh 29.63 in1003.4 mb 0.00 in0.0 mm 0.00 in0.0 mm 0.00 in0.0 mm
07:04 PM 67.8°F19.9°C 51.1°F10.6°C 55% 4.0 mph E6.4 kmh E 14.0 mph22.5 kmh 29.63 in1003.4 mb 0.00 in0.0 mm 0.00 in0.0 mm 0.00 in0.0 mm
07:02 PM 67.8°F19.9°C 51.1°F10.6°C 55% 4.0 mph E6.4 kmh E 14.0 mph22.5 kmh 29.63 in1003.4 mb 0.00 in0.0 mm 0.00 in0.0 mm 0.00 in0.0 mm
07:00 PM 68.0°F20.0°C 51.2°F10.7°C 55% 4.0 mph E6.4 kmh E 13.0 mph20.9 kmh 29.63 in1003.4 mb 0.00 in0.0 mm 0.00 in0.0 mm 0.00 in0.0 mm
06:58 PM 68.0°F20.0°C 51.2°F10.7°C 55% 4.0 mph E6.4 kmh E 13.0 mph20.9 kmh 29.63 in1003.4 mb 0.00 in0.0 mm 0.00 in0.0 mm 0.00 in0.0 mm
06:56 PM 68.0°F20.0°C 51.2°F10.7°C 55% 4.0 mph E6.4 kmh E 13.0 mph20.9 kmh 29.63 in1003.4 mb 0.00 in0.0 mm 0.00 in0.0 mm 0.00 in0.0 mm
06:54 PM 68.2°F20.1°C 51.4°F10.8°C 55% 4.0 mph E6.4 kmh E 12.0 mph19.3 kmh 29.63 in1003.4 mb 0.00 in0.0 mm 0.00 in0.0 mm 0.00 in0.0 mm
06:52 PM 68.2°F20.1°C 51.4°F10.8°C 55% 4.0 mph E6.4 kmh E 15.0 mph24.1 kmh 29.63 in1003.4 mb 0.00 in0.0 mm 0.00 in0.0 mm 0.00 in0.0 mm
06:50 PM 68.2°F20.1°C 51.4°F10.8°C 55% 4.0 mph E6.4 kmh E 15.0 mph24.1 kmh 29.63 in1003.4 mb 0.00 in0.0 mm 0.00 in0.0 mm 0.00 in0.0 mm
06:48 PM 68.4°F20.2°C 51.1°F10.6°C 54% 4.0 mph E6.4 kmh E 15.0 mph24.1 kmh 29.63 in1003.4 mb 0.00 in0.0 mm 0.00 in0.0 mm 0.00 in0.0 mm
06:46 PM 68.4°F20.2°C 51.1°F10.6°C 54% 4.0 mph E6.4 kmh E 15.0 mph24.1 kmh 29.63 in1003.4 mb 0.00 in0.0 mm 0.00 in0.0 mm 0.00 in0.0 mm
06:44 PM 68.4°F20.2°C 51.1°F10.6°C 54% 4.0 mph E6.4 kmh E 15.0 mph24.1 kmh 29.63 in1003.4 mb 0.00 in0.0 mm 0.00 in0.0 mm 0.00 in0.0 mm
06:42 PM 68.5°F20.3°C 51.2°F10.7°C 54% 3.0 mph E4.8 kmh E 13.0 mph20.9 kmh 29.63 in1003.4 mb 0.00 in0.0 mm 0.00 in0.0 mm 0.00 in0.0 mm
06:40 PM 68.5°F20.3°C 51.2°F10.7°C 54% 3.0 mph E4.8 kmh E 13.0 mph20.9 kmh 29.63 in1003.4 mb 0.00 in0.0 mm 0.00 in0.0 mm 0.00 in0.0 mm
06:38 PM 68.5°F20.3°C 51.2°F10.7°C 54% 4.0 mph E6.4 kmh E 14.0 mph22.5 kmh 29.63 in1003.4 mb 0.00 in0.0 mm 0.00 in0.0 mm 0.00 in0.0 mm
06:36 PM 68.5°F20.3°C 51.2°F10.7°C 54% 4.0 mph E6.4 kmh E 14.0 mph22.5 kmh 29.63 in1003.4 mb 0.00 in0.0 mm 0.00 in0.0 mm 0.00 in0.0 mm
06:34 PM 68.7°F20.4°C 51.4°F10.8°C 54% 5.0 mph E8.0 kmh E 14.0 mph22.5 kmh 29.63 in1003.4 mb 0.00 in0.0 mm 0.00 in0.0 mm 0.00 in0.0 mm
06:32 PM 68.7°F20.4°C 50.9°F10.5°C 53% 5.0 mph E8.0 kmh E 16.0 mph25.7 kmh 29.63 in1003.4 mb 0.00 in0.0 mm 0.00 in0.0 mm 0.00 in0.0 mm
06:30 PM 68.7°F20.4°C 50.9°F10.5°C 53% 5.0 mph E8.0 kmh E 16.0 mph25.7 kmh 29.63 in1003.4 mb 0.00 in0.0 mm 0.00 in0.0 mm 0.00 in0.0 mm
06:28 PM 68.7°F20.4°C 50.9°F10.5°C 53% 5.0 mph E8.0 kmh E 16.0 mph25.7 kmh 29.63 in1003.4 mb 0.00 in0.0 mm 0.00 in0.0 mm 0.00 in0.0 mm
06:26 PM 68.9°F20.5°C 51.1°F10.6°C 53% 5.0 mph E8.0 kmh E 16.0 mph25.7 kmh 29.63 in1003.4 mb 0.00 in0.0 mm 0.00 in0.0 mm 0.00 in0.0 mm
06:24 PM 68.9°F20.5°C 51.1°F10.6°C 53% 5.0 mph E8.0 kmh E 16.0 mph25.7 kmh 29.62 in1003.0 mb 0.00 in0.0 mm 0.00 in0.0 mm 0.00 in0.0 mm
06:22 PM 68.9°F20.5°C 51.1°F10.6°C 53% 5.0 mph E8.0 kmh E 13.0 mph20.9 kmh 29.63 in1003.4 mb 0.00 in0.0 mm 0.00 in0.0 mm 0.00 in0.0 mm
06:20 PM 69.1°F20.6°C 51.2°F10.7°C 53% 5.0 mph E8.0 kmh E 13.0 mph20.9 kmh 29.63 in1003.4 mb 0.00 in0.0 mm 0.00 in0.0 mm 0.00 in0.0 mm
06:18 PM 69.1°F20.6°C 51.2°F10.7°C 53% 5.0 mph E8.0 kmh E 13.0 mph20.9 kmh 29.63 in1003.4 mb 0.00 in0.0 mm 0.00 in0.0 mm 0.00 in0.0 mm
06:16 PM 69.1°F20.6°C 51.2°F10.7°C 53% 6.0 mph E9.7 kmh E 13.0 mph20.9 kmh 29.63 in1003.4 mb 0.00 in0.0 mm 0.00 in0.0 mm 0.00 in0.0 mm
06:14 PM 69.3°F20.7°C 50.9°F10.5°C 52% 6.0 mph E9.7 kmh E 17.0 mph27.4 kmh 29.63 in1003.4 mb 0.00 in0.0 mm 0.00 in0.0 mm 0.00 in0.0 mm
06:12 PM 69.3°F20.7°C 50.9°F10.5°C 52% 5.0 mph ESE8.0 kmh ESE 17.0 mph27.4 kmh 29.63 in1003.4 mb 0.00 in0.0 mm 0.00 in0.0 mm 0.00 in0.0 mm
06:10 PM 69.3°F20.7°C 50.9°F10.5°C 52% 5.0 mph ESE8.0 kmh ESE 17.0 mph27.4 kmh 29.63 in1003.4 mb 0.00 in0.0 mm 0.00 in0.0 mm 0.00 in0.0 mm
06:08 PM 69.3°F20.7°C 50.4°F10.2°C 51% 4.0 mph ESE6.4 kmh ESE 17.0 mph27.4 kmh 29.63 in1003.4 mb 0.00 in0.0 mm 0.00 in0.0 mm 0.00 in0.0 mm
06:06 PM 69.4°F20.8°C 50.5°F10.3°C 51% 4.0 mph ESE6.4 kmh ESE 17.0 mph27.4 kmh 29.63 in1003.4 mb 0.00 in0.0 mm 0.00 in0.0 mm 0.00 in0.0 mm
06:04 PM 69.4°F20.8°C 50.5°F10.3°C 51% 3.0 mph E4.8 kmh E 14.0 mph22.5 kmh 29.63 in1003.4 mb 0.00 in0.0 mm 0.00 in0.0 mm 0.00 in0.0 mm
06:02 PM 69.4°F20.8°C 51.0°F10.6°C 52% 3.0 mph E4.8 kmh E 13.0 mph20.9 kmh 29.63 in1003.4 mb 0.00 in0.0 mm 0.00 in0.0 mm 0.00 in0.0 mm
06:00 PM 69.4°F20.8°C 50.0°F10.0°C 50% 2.0 mph E3.2 kmh E 15.0 mph24.1 kmh 29.63 in1003.4 mb 0.00 in0.0 mm 0.00 in0.0 mm 0.00 in0.0 mm
05:58 PM 69.4°F20.8°C 50.5°F10.3°C 51% 2.0 mph E3.2 kmh E 15.0 mph24.1 kmh 29.63 in1003.4 mb 0.00 in0.0 mm 0.00 in0.0 mm 0.00 in0.0 mm
05:56 PM 69.6°F20.9°C 50.7°F10.4°C 51% 1.0 mph E1.6 kmh E 15.0 mph24.1 kmh 29.63 in1003.4 mb 0.00 in0.0 mm 0.00 in0.0 mm 0.00 in0.0 mm
05:54 PM 69.6°F20.9°C 50.7°F10.4°C 51% 1.0 mph E1.6 kmh E 15.0 mph24.1 kmh 29.63 in1003.4 mb 0.00 in0.0 mm 0.00 in0.0 mm 0.00 in0.0 mm
05:52 PM 69.6°F20.9°C 50.7°F10.4°C 51% 1.0 mph E1.6 kmh E 15.0 mph24.1 kmh 29.63 in1003.4 mb 0.00 in0.0 mm 0.00 in0.0 mm 0.00 in0.0 mm
05:50 PM 69.6°F20.9°C 50.7°F10.4°C 51% 1.0 mph E1.6 kmh E 10.0 mph16.1 kmh 29.63 in1003.4 mb 0.00 in0.0 mm 0.00 in0.0 mm 0.00 in0.0 mm
05:48 PM 69.6°F20.9°C 50.2°F10.1°C 50% 1.0 mph E1.6 kmh E 10.0 mph16.1 kmh 29.63 in1003.4 mb 0.00 in0.0 mm 0.00 in0.0 mm 0.00 in0.0 mm
05:46 PM 69.8°F21.0°C 50.9°F10.5°C 51% 1.0 mph E1.6 kmh E 6.0 mph9.7 kmh 29.63 in1003.4 mb 0.00 in0.0 mm 0.00 in0.0 mm 0.00 in0.0 mm
05:44 PM 69.8°F21.0°C 50.3°F10.2°C 50% 2.0 mph E3.2 kmh E 9.0 mph14.5 kmh 29.64 in1003.7 mb 0.00 in0.0 mm 0.00 in0.0 mm 0.00 in0.0 mm
05:42 PM 70.0°F21.1°C 50.5°F10.3°C 50% 2.0 mph E3.2 kmh E 9.0 mph14.5 kmh 29.63 in1003.4 mb 0.00 in0.0 mm 0.00 in0.0 mm 0.00 in0.0 mm
05:40 PM 70.0°F21.1°C 50.5°F10.3°C 50% 2.0 mph ENE3.2 kmh ENE 9.0 mph14.5 kmh 29.63 in1003.4 mb 0.00 in0.0 mm 0.00 in0.0 mm 0.00 in0.0 mm
05:38 PM 70.0°F21.1°C 50.5°F10.3°C 50% 3.0 mph E4.8 kmh E 11.0 mph17.7 kmh 29.63 in1003.4 mb 0.00 in0.0 mm 0.00 in0.0 mm 0.00 in0.0 mm
05:36 PM 70.2°F21.2°C 50.6°F10.3°C 50% 3.0 mph E4.8 kmh E 12.0 mph19.3 kmh 29.63 in1003.4 mb 0.00 in0.0 mm 0.00 in0.0 mm 0.00 in0.0 mm
05:34 PM 70.0°F21.1°C 50.5°F10.3°C 50% 3.0 mph E4.8 kmh E 12.0 mph19.3 kmh 29.63 in1003.4 mb 0.00 in0.0 mm 0.00 in0.0 mm 0.00 in0.0 mm
05:32 PM 70.2°F21.2°C 50.6°F10.3°C 50% 3.0 mph E4.8 kmh E 12.0 mph19.3 kmh 29.64 in1003.7 mb 0.00 in0.0 mm 0.00 in0.0 mm 0.00 in0.0 mm
05:30 PM 70.2°F21.2°C 50.6°F10.3°C 50% 4.0 mph E6.4 kmh E 12.0 mph19.3 kmh 29.64 in1003.7 mb 0.00 in0.0 mm 0.00 in0.0 mm 0.00 in0.0 mm
05:28 PM 70.2°F21.2°C 50.1°F10.1°C 49% 4.0 mph E6.4 kmh E 13.0 mph20.9 kmh 29.64 in1003.7 mb 0.00 in0.0 mm 0.00 in0.0 mm 0.00 in0.0 mm
05:26 PM 70.2°F21.2°C 50.6°F10.3°C 50% 4.0 mph E6.4 kmh E 13.0 mph20.9 kmh 29.64 in1003.7 mb 0.00 in0.0 mm 0.00 in0.0 mm 0.00 in0.0 mm
05:24 PM 70.2°F21.2°C 50.1°F10.1°C 49% 4.0 mph E6.4 kmh E 13.0 mph20.9 kmh 29.64 in1003.7 mb 0.00 in0.0 mm 0.00 in0.0 mm 0.00 in0.0 mm
05:22 PM 70.2°F21.2°C 50.6°F10.3°C 50% 4.0 mph E6.4 kmh E 13.0 mph20.9 kmh 29.64 in1003.7 mb 0.00 in0.0 mm 0.00 in0.0 mm 0.00 in0.0 mm
05:20 PM 70.2°F21.2°C 50.1°F10.1°C 49% 4.0 mph E6.4 kmh E 13.0 mph20.9 kmh 29.64 in1003.7 mb 0.00 in0.0 mm 0.00 in0.0 mm 0.00 in0.0 mm
05:18 PM 70.2°F21.2°C 50.1°F10.1°C 49% 4.0 mph E6.4 kmh E 13.0 mph20.9 kmh 29.64 in1003.7 mb 0.00 in0.0 mm 0.00 in0.0 mm 0.00 in0.0 mm
05:16 PM 70.3°F21.3°C 50.3°F10.2°C 49% 3.0 mph E4.8 kmh E 11.0 mph17.7 kmh 29.64 in1003.7 mb 0.00 in0.0 mm 0.00 in0.0 mm 0.00 in0.0 mm
05:14 PM 70.3°F21.3°C 50.3°F10.2°C 49% 3.0 mph E4.8 kmh E 11.0 mph17.7 kmh 29.64 in1003.7 mb 0.00 in0.0 mm 0.00 in0.0 mm 0.00 in0.0 mm
05:12 PM 70.3°F21.3°C 50.3°F10.2°C 49% 4.0 mph E6.4 kmh E 11.0 mph17.7 kmh 29.64 in1003.7 mb 0.00 in0.0 mm 0.00 in0.0 mm 0.00 in0.0 mm
05:10 PM 70.3°F21.3°C 50.3°F10.2°C 49% 4.0 mph ESE6.4 kmh ESE 14.0 mph22.5 kmh 29.64 in1003.7 mb 0.00 in0.0 mm 0.00 in0.0 mm 0.00 in0.0 mm
05:08 PM 70.5°F21.4°C 50.4°F10.2°C 49% 3.0 mph ESE4.8 kmh ESE 16.0 mph25.7 kmh 29.64 in1003.7 mb 0.00 in0.0 mm 0.00 in0.0 mm 0.00 in0.0 mm
05:06 PM 70.5°F21.4°C 49.9°F9.9°C 48% 3.0 mph ESE4.8 kmh ESE 16.0 mph25.7 kmh 29.64 in1003.7 mb 0.00 in0.0 mm 0.00 in0.0 mm 0.00 in0.0 mm
05:04 PM 70.7°F21.5°C 50.6°F10.3°C 49% 2.0 mph ESE3.2 kmh ESE 16.0 mph25.7 kmh 29.64 in1003.7 mb 0.00 in0.0 mm 0.00 in0.0 mm 0.00 in0.0 mm
05:02 PM 70.7°F21.5°C 50.6°F10.3°C 49% 2.0 mph E3.2 kmh E 16.0 mph25.7 kmh 29.64 in1003.7 mb 0.00 in0.0 mm 0.00 in0.0 mm 0.00 in0.0 mm
05:00 PM 70.9°F21.6°C 50.8°F10.4°C 49% 2.0 mph E3.2 kmh E 16.0 mph25.7 kmh 29.64 in1003.7 mb 0.00 in0.0 mm 0.00 in0.0 mm 0.00 in0.0 mm
04:58 PM 70.9°F21.6°C 50.2°F10.1°C 48% 1.0 mph E1.6 kmh E 13.0 mph20.9 kmh 29.64 in1003.7 mb 0.00 in0.0 mm 0.00 in0.0 mm 0.00 in0.0 mm
04:56 PM 70.9°F21.6°C 50.8°F10.4°C 49% 2.0 mph E3.2 kmh E 13.0 mph20.9 kmh 29.64 in1003.7 mb 0.00 in0.0 mm 0.00 in0.0 mm 0.00 in0.0 mm
04:54 PM 71.1°F21.7°C 50.4°F10.2°C 48% 2.0 mph E3.2 kmh E 12.0 mph19.3 kmh 29.64 in1003.7 mb 0.00 in0.0 mm 0.00 in0.0 mm 0.00 in0.0 mm
04:52 PM 71.1°F21.7°C 50.4°F10.2°C 48% 2.0 mph E3.2 kmh E 11.0 mph17.7 kmh 29.64 in1003.7 mb 0.00 in0.0 mm 0.00 in0.0 mm 0.00 in0.0 mm
04:50 PM 71.1°F21.7°C 50.4°F10.2°C 48% 3.0 mph E4.8 kmh E 11.0 mph17.7 kmh 29.64 in1003.7 mb 0.00 in0.0 mm 0.00 in0.0 mm 0.00 in0.0 mm
04:48 PM 71.2°F21.8°C 50.5°F10.3°C 48% 4.0 mph E6.4 kmh E 11.0 mph17.7 kmh 29.64 in1003.7 mb 0.00 in0.0 mm 0.00 in0.0 mm 0.00 in0.0 mm
04:46 PM 71.2°F21.8°C 50.5°F10.3°C 48% 4.0 mph ESE6.4 kmh ESE 14.0 mph22.5 kmh 29.64 in1003.7 mb 0.00 in0.0 mm 0.00 in0.0 mm 0.00 in0.0 mm
04:44 PM 71.2°F21.8°C 50.0°F10.0°C 47% 5.0 mph E8.0 kmh E 14.0 mph22.5 kmh 29.64 in1003.7 mb 0.00 in0.0 mm 0.00 in0.0 mm 0.00 in0.0 mm
04:42 PM 71.2°F21.8°C 51.1°F10.6°C 49% 5.0 mph E8.0 kmh E 14.0 mph22.5 kmh 29.64 in1003.7 mb 0.00 in0.0 mm 0.00 in0.0 mm 0.00 in0.0 mm
04:40 PM 71.2°F21.8°C 50.5°F10.3°C 48% 4.0 mph E6.4 kmh E 15.0 mph24.1 kmh 29.64 in1003.7 mb 0.00 in0.0 mm 0.00 in0.0 mm 0.00 in0.0 mm
04:38 PM 71.2°F21.8°C 50.0°F10.0°C 47% 4.0 mph E6.4 kmh E 15.0 mph24.1 kmh 29.64 in1003.7 mb 0.00 in0.0 mm 0.00 in0.0 mm 0.00 in0.0 mm
04:36 PM 71.2°F21.8°C 50.0°F10.0°C 47% 4.0 mph E6.4 kmh E 15.0 mph24.1 kmh 29.64 in1003.7 mb 0.00 in0.0 mm 0.00 in0.0 mm 0.00 in0.0 mm
04:34 PM 71.4°F21.9°C 50.1°F10.1°C 47% 4.0 mph E6.4 kmh E 15.0 mph24.1 kmh 29.64 in1003.7 mb 0.00 in0.0 mm 0.00 in0.0 mm 0.00 in0.0 mm
04:32 PM 71.4°F21.9°C 50.1°F10.1°C 47% 4.0 mph E6.4 kmh E 15.0 mph24.1 kmh 29.64 in1003.7 mb 0.00 in0.0 mm 0.00 in0.0 mm 0.00 in0.0 mm
04:30 PM 71.6°F22.0°C 50.3°F10.2°C 47% 4.0 mph E6.4 kmh E 11.0 mph17.7 kmh 29.64 in1003.7 mb 0.00 in0.0 mm 0.00 in0.0 mm 0.00 in0.0 mm
04:28 PM 71.8°F22.1°C 50.5°F10.3°C 47% 4.0 mph E6.4 kmh E 11.0 mph17.7 kmh 29.64 in1003.7 mb 0.00 in0.0 mm 0.00 in0.0 mm 0.00 in0.0 mm
04:26 PM 71.8°F22.1°C 49.9°F9.9°C 46% 4.0 mph E6.4 kmh E 18.0 mph29.0 kmh 29.64 in1003.7 mb 0.00 in0.0 mm 0.00 in0.0 mm 0.00 in0.0 mm
04:24 PM 71.8°F22.1°C 49.9°F9.9°C 46% 4.0 mph E6.4 kmh E 18.0 mph29.0 kmh 29.64 in1003.7 mb 0.00 in0.0 mm 0.00 in0.0 mm 0.00 in0.0 mm
04:22 PM 72.0°F22.2°C 50.0°F10.0°C 46% 4.0 mph E6.4 kmh E 18.0 mph29.0 kmh 29.64 in1003.7 mb 0.00 in0.0 mm 0.00 in0.0 mm 0.00 in0.0 mm
04:20 PM 71.8°F22.1°C 50.5°F10.3°C 47% 3.0 mph E4.8 kmh E 18.0 mph29.0 kmh 29.64 in1003.7 mb 0.00 in0.0 mm 0.00 in0.0 mm 0.00 in0.0 mm
04:18 PM 71.8°F22.1°C 49.9°F9.9°C 46% 3.0 mph E4.8 kmh E 18.0 mph29.0 kmh 29.65 in1004.1 mb 0.00 in0.0 mm 0.00 in0.0 mm 0.00 in0.0 mm
04:16 PM 71.8°F22.1°C 51.0°F10.6°C 48% 3.0 mph E4.8 kmh E 17.0 mph27.4 kmh 29.65 in1004.1 mb 0.00 in0.0 mm 0.00 in0.0 mm 0.00 in0.0 mm
04:14 PM 71.4°F21.9°C 49.6°F9.8°C 46% 3.0 mph E4.8 kmh E 15.0 mph24.1 kmh 29.65 in1004.1 mb 0.00 in0.0 mm 0.00 in0.0 mm 0.00 in0.0 mm
04:12 PM 71.4°F21.9°C 49.6°F9.8°C 46% 3.0 mph E4.8 kmh E 15.0 mph24.1 kmh 29.65 in1004.1 mb 0.00 in0.0 mm 0.00 in0.0 mm 0.00 in0.0 mm
04:10 PM 71.4°F21.9°C 50.1°F10.1°C 47% 3.0 mph E4.8 kmh E 15.0 mph24.1 kmh 29.65 in1004.1 mb 0.00 in0.0 mm 0.00 in0.0 mm 0.00 in0.0 mm
04:08 PM 71.4°F21.9°C 49.6°F9.8°C 46% 3.0 mph E4.8 kmh E 13.0 mph20.9 kmh 29.65 in1004.1 mb 0.00 in0.0 mm 0.00 in0.0 mm 0.00 in0.0 mm
04:06 PM 71.6°F22.0°C 50.3°F10.2°C 47% 3.0 mph E4.8 kmh E 11.0 mph17.7 kmh 29.65 in1004.1 mb 0.00 in0.0 mm 0.00 in0.0 mm 0.00 in0.0 mm
04:04 PM 71.8°F22.1°C 49.9°F9.9°C 46% 3.0 mph E4.8 kmh E 11.0 mph17.7 kmh 29.65 in1004.1 mb 0.00 in0.0 mm 0.00 in0.0 mm 0.00 in0.0 mm
04:00 PM 71.8°F22.1°C 49.3°F9.6°C 45% 4.0 mph E6.4 kmh E 15.0 mph24.1 kmh 29.65 in1004.1 mb 0.00 in0.0 mm 0.00 in0.0 mm 0.00 in0.0 mm
03:58 PM 71.8°F22.1°C 49.9°F9.9°C 46% 4.0 mph E6.4 kmh E 15.0 mph24.1 kmh 29.65 in1004.1 mb 0.00 in0.0 mm 0.00 in0.0 mm 0.00 in0.0 mm
03:56 PM 72.0°F22.2°C 50.0°F10.0°C 46% 3.0 mph E4.8 kmh E 15.0 mph24.1 kmh 29.65 in1004.1 mb 0.00 in0.0 mm 0.00 in0.0 mm 0.00 in0.0 mm
03:54 PM 72.0°F22.2°C 49.5°F9.7°C 45% 3.0 mph E4.8 kmh E 15.0 mph24.1 kmh 29.65 in1004.1 mb 0.00 in0.0 mm 0.00 in0.0 mm 0.00 in0.0 mm
03:52 PM 72.1°F22.3°C 49.6°F9.8°C 45% 3.0 mph E4.8 kmh E 15.0 mph24.1 kmh 29.65 in1004.1 mb 0.00 in0.0 mm 0.00 in0.0 mm 0.00 in0.0 mm
03:50 PM 72.3°F22.4°C 51.0°F10.6°C 47% 3.0 mph E4.8 kmh E 14.0 mph22.5 kmh 29.65 in1004.1 mb 0.00 in0.0 mm 0.00 in0.0 mm 0.00 in0.0 mm
03:48 PM 72.3°F22.4°C 50.4°F10.2°C 46% 3.0 mph ESE4.8 kmh ESE 14.0 mph22.5 kmh 29.65 in1004.1 mb 0.00 in0.0 mm 0.00 in0.0 mm 0.00 in0.0 mm
03:46 PM 72.5°F22.5°C 50.5°F10.3°C 46% 4.0 mph E6.4 kmh E 14.0 mph22.5 kmh 29.65 in1004.1 mb 0.00 in0.0 mm 0.00 in0.0 mm 0.00 in0.0 mm
03:44 PM 72.5°F22.5°C 50.5°F10.3°C 46% 4.0 mph E6.4 kmh E 14.0 mph22.5 kmh 29.65 in1004.1 mb 0.00 in0.0 mm 0.00 in0.0 mm 0.00 in0.0 mm
03:42 PM 72.7°F22.6°C 50.7°F10.4°C 46% 4.0 mph E6.4 kmh E 14.0 mph22.5 kmh 29.66 in1004.4 mb 0.00 in0.0 mm 0.00 in0.0 mm 0.00 in0.0 mm
03:40 PM 72.7°F22.6°C 50.1°F10.1°C 45% 4.0 mph E6.4 kmh E 13.0 mph20.9 kmh 29.66 in1004.4 mb 0.00 in0.0 mm 0.00 in0.0 mm 0.00 in0.0 mm
03:38 PM 72.7°F22.6°C 51.9°F11.1°C 48% 4.0 mph E6.4 kmh E 13.0 mph20.9 kmh 29.66 in1004.4 mb 0.00 in0.0 mm 0.00 in0.0 mm 0.00 in0.0 mm
03:36 PM 72.5°F22.5°C 51.1°F10.6°C 47% 4.0 mph E6.4 kmh E 17.0 mph27.4 kmh 29.65 in1004.1 mb 0.00 in0.0 mm 0.00 in0.0 mm 0.00 in0.0 mm
03:34 PM 72.5°F22.5°C 49.9°F9.9°C 45% 4.0 mph E6.4 kmh E 17.0 mph27.4 kmh 29.65 in1004.1 mb 0.00 in0.0 mm 0.00 in0.0 mm 0.00 in0.0 mm
03:32 PM 72.7°F22.6°C 50.1°F10.1°C 45% 4.0 mph E6.4 kmh E 17.0 mph27.4 kmh 29.65 in1004.1 mb 0.00 in0.0 mm 0.00 in0.0 mm 0.00 in0.0 mm
03:30 PM 72.7°F22.6°C 50.1°F10.1°C 45% 4.0 mph E6.4 kmh E 17.0 mph27.4 kmh 29.65 in1004.1 mb 0.00 in0.0 mm 0.00 in0.0 mm 0.00 in0.0 mm
03:28 PM 72.9°F22.7°C 50.9°F10.5°C 46% 4.0 mph E6.4 kmh E 17.0 mph27.4 kmh 29.66 in1004.4 mb 0.00 in0.0 mm 0.00 in0.0 mm 0.00 in0.0 mm
03:26 PM 72.9°F22.7°C 50.9°F10.5°C 46% 4.0 mph E6.4 kmh E 11.0 mph17.7 kmh 29.65 in1004.1 mb 0.00 in0.0 mm 0.00 in0.0 mm 0.00 in0.0 mm
03:24 PM 72.9°F22.7°C 50.3°F10.2°C 45% 4.0 mph E6.4 kmh E 13.0 mph20.9 kmh 29.66 in1004.4 mb 0.00 in0.0 mm 0.00 in0.0 mm 0.00 in0.0 mm
03:20 PM 73.2°F22.9°C 50.0°F10.0°C 44% 6.0 mph E9.7 kmh E 17.0 mph27.4 kmh 29.66 in1004.4 mb 0.00 in0.0 mm 0.00 in0.0 mm 0.00 in0.0 mm
03:18 PM 73.6°F23.1°C 50.3°F10.2°C 44% 5.0 mph E8.0 kmh E 17.0 mph27.4 kmh 29.66 in1004.4 mb 0.00 in0.0 mm 0.00 in0.0 mm 0.00 in0.0 mm
03:16 PM 73.6°F23.1°C 50.3°F10.2°C 44% 4.0 mph E6.4 kmh E 17.0 mph27.4 kmh 29.66 in1004.4 mb 0.00 in0.0 mm 0.00 in0.0 mm 0.00 in0.0 mm
03:14 PM 73.6°F23.1°C 50.9°F10.5°C 45% 4.0 mph E6.4 kmh E 17.0 mph27.4 kmh 29.66 in1004.4 mb 0.00 in0.0 mm 0.00 in0.0 mm 0.00 in0.0 mm
03:12 PM 73.6°F23.1°C 50.9°F10.5°C 45% 3.0 mph E4.8 kmh E 17.0 mph27.4 kmh 29.66 in1004.4 mb 0.00 in0.0 mm 0.00 in0.0 mm 0.00 in0.0 mm
03:10 PM 73.2°F22.9°C 51.2°F10.7°C 46% 3.0 mph E4.8 kmh E 15.0 mph24.1 kmh 29.66 in1004.4 mb 0.00 in0.0 mm 0.00 in0.0 mm 0.00 in0.0 mm
03:08 PM 73.2°F22.9°C 50.6°F10.3°C 45% 3.0 mph E4.8 kmh E 11.0 mph17.7 kmh 29.66 in1004.4 mb 0.00 in0.0 mm 0.00 in0.0 mm 0.00 in0.0 mm
03:06 PM 73.2°F22.9°C 50.6°F10.3°C 45% 3.0 mph E4.8 kmh E 14.0 mph22.5 kmh 29.66 in1004.4 mb 0.00 in0.0 mm 0.00 in0.0 mm 0.00 in0.0 mm
03:04 PM 73.2°F22.9°C 51.2°F10.7°C 46% 4.0 mph E6.4 kmh E 14.0 mph22.5 kmh 29.66 in1004.4 mb 0.00 in0.0 mm 0.00 in0.0 mm 0.00 in0.0 mm
03:02 PM 73.0°F22.8°C 52.2°F11.2°C 48% 4.0 mph E6.4 kmh E 14.0 mph22.5 kmh 29.66 in1004.4 mb 0.00 in0.0 mm 0.00 in0.0 mm 0.00 in0.0 mm
03:00 PM 72.9°F22.7°C 50.9°F10.5°C 46% 4.0 mph E6.4 kmh E 14.0 mph22.5 kmh 29.66 in1004.4 mb 0.00 in0.0 mm 0.00 in0.0 mm 0.00 in0.0 mm
02:58 PM 72.9°F22.7°C 50.3°F10.2°C 45% 4.0 mph E6.4 kmh E 14.0 mph22.5 kmh 29.66 in1004.4 mb 0.00 in0.0 mm 0.00 in0.0 mm 0.00 in0.0 mm
02:56 PM 72.9°F22.7°C 50.9°F10.5°C 46% 4.0 mph E6.4 kmh E 13.0 mph20.9 kmh 29.66 in1004.4 mb 0.00 in0.0 mm 0.00 in0.0 mm 0.00 in0.0 mm
02:54 PM 72.9°F22.7°C 49.7°F9.8°C 44% 5.0 mph E8.0 kmh E 11.0 mph17.7 kmh 29.66 in1004.4 mb 0.00 in0.0 mm 0.00 in0.0 mm 0.00 in0.0 mm
02:52 PM 73.0°F22.8°C 49.8°F9.9°C 44% 4.0 mph E6.4 kmh E 14.0 mph22.5 kmh 29.66 in1004.4 mb 0.00 in0.0 mm 0.00 in0.0 mm 0.00 in0.0 mm
02:50 PM 73.0°F22.8°C 51.0°F10.6°C 46% 4.0 mph E6.4 kmh E 14.0 mph22.5 kmh 29.66 in1004.4 mb 0.00 in0.0 mm 0.00 in0.0 mm 0.00 in0.0 mm
02:48 PM 72.9°F22.7°C 50.3°F10.2°C 45% 4.0 mph E6.4 kmh E 14.0 mph22.5 kmh 29.66 in1004.4 mb 0.00 in0.0 mm 0.00 in0.0 mm 0.00 in0.0 mm
02:46 PM 72.7°F22.6°C 50.1°F10.1°C 45% 4.0 mph E6.4 kmh E 15.0 mph24.1 kmh 29.66 in1004.4 mb 0.00 in0.0 mm 0.00 in0.0 mm 0.00 in0.0 mm
02:44 PM 72.5°F22.5°C 51.1°F10.6°C 47% 4.0 mph E6.4 kmh E 15.0 mph24.1 kmh 29.66 in1004.4 mb 0.00 in0.0 mm 0.00 in0.0 mm 0.00 in0.0 mm
02:42 PM 72.1°F22.3°C 50.2°F10.1°C 46% 5.0 mph E8.0 kmh E 15.0 mph24.1 kmh 29.66 in1004.4 mb 0.00 in0.0 mm 0.00 in0.0 mm 0.00 in0.0 mm
02:40 PM 72.1°F22.3°C 49.0°F9.4°C 44% 6.0 mph E9.7 kmh E 15.0 mph24.1 kmh 29.66 in1004.4 mb 0.00 in0.0 mm 0.00 in0.0 mm 0.00 in0.0 mm
02:38 PM 72.1°F22.3°C 49.6°F9.8°C 45% 6.0 mph E9.7 kmh E 18.0 mph29.0 kmh 29.66 in1004.4 mb 0.00 in0.0 mm 0.00 in0.0 mm 0.00 in0.0 mm
02:36 PM 72.3°F22.4°C 49.8°F9.9°C 45% 6.0 mph E9.7 kmh E 18.0 mph29.0 kmh 29.66 in1004.4 mb 0.00 in0.0 mm 0.00 in0.0 mm 0.00 in0.0 mm
02:34 PM 72.7°F22.6°C 50.1°F10.1°C 45% 5.0 mph E8.0 kmh E 18.0 mph29.0 kmh 29.67 in1004.7 mb 0.00 in0.0 mm 0.00 in0.0 mm 0.00 in0.0 mm
02:32 PM 72.9°F22.7°C 49.7°F9.8°C 44% 5.0 mph E8.0 kmh E 18.0 mph29.0 kmh 29.67 in1004.7 mb 0.00 in0.0 mm 0.00 in0.0 mm 0.00 in0.0 mm
02:30 PM 73.0°F22.8°C 49.8°F9.9°C 44% 5.0 mph E8.0 kmh E 18.0 mph29.0 kmh 29.67 in1004.7 mb 0.00 in0.0 mm 0.00 in0.0 mm 0.00 in0.0 mm
02:28 PM 73.4°F23.0°C 50.2°F10.1°C 44% 5.0 mph E8.0 kmh E 14.0 mph22.5 kmh 29.67 in1004.7 mb 0.00 in0.0 mm 0.00 in0.0 mm 0.00 in0.0 mm
02:26 PM 73.6°F23.1°C 50.3°F10.2°C 44% 5.0 mph ESE8.0 kmh ESE 14.0 mph22.5 kmh 29.67 in1004.7 mb 0.00 in0.0 mm 0.00 in0.0 mm 0.00 in0.0 mm
02:24 PM 73.6°F23.1°C 49.7°F9.8°C 43% 6.0 mph ESE9.7 kmh ESE 14.0 mph22.5 kmh 29.67 in1004.7 mb 0.00 in0.0 mm 0.00 in0.0 mm 0.00 in0.0 mm
02:22 PM 73.8°F23.2°C 49.9°F9.9°C 43% 6.0 mph ESE9.7 kmh ESE 14.0 mph22.5 kmh 29.67 in1004.7 mb 0.00 in0.0 mm 0.00 in0.0 mm 0.00 in0.0 mm
02:20 PM 73.8°F23.2°C 49.2°F9.6°C 42% 6.0 mph ESE9.7 kmh ESE 15.0 mph24.1 kmh 29.67 in1004.7 mb 0.00 in0.0 mm 0.00 in0.0 mm 0.00 in0.0 mm
02:18 PM 73.9°F23.3°C 50.6°F10.3°C 44% 5.0 mph ESE8.0 kmh ESE 15.0 mph24.1 kmh 29.67 in1004.7 mb 0.00 in0.0 mm 0.00 in0.0 mm 0.00 in0.0 mm
02:16 PM 73.9°F23.3°C 50.0°F10.0°C 43% 4.0 mph ESE6.4 kmh ESE 15.0 mph24.1 kmh 29.67 in1004.7 mb 0.00 in0.0 mm 0.00 in0.0 mm 0.00 in0.0 mm
02:14 PM 73.8°F23.2°C 49.2°F9.6°C 42% 4.0 mph ESE6.4 kmh ESE 15.0 mph24.1 kmh 29.67 in1004.7 mb 0.00 in0.0 mm 0.00 in0.0 mm 0.00 in0.0 mm
02:12 PM 73.8°F23.2°C 49.2°F9.6°C 42% 3.0 mph E4.8 kmh E 15.0 mph24.1 kmh 29.68 in1005.1 mb 0.00 in0.0 mm 0.00 in0.0 mm 0.00 in0.0 mm
02:10 PM 73.8°F23.2°C 49.9°F9.9°C 43% 3.0 mph E4.8 kmh E 14.0 mph22.5 kmh 29.67 in1004.7 mb 0.00 in0.0 mm 0.00 in0.0 mm 0.00 in0.0 mm
02:08 PM 73.6°F23.1°C 50.3°F10.2°C 44% 3.0 mph E4.8 kmh E 14.0 mph22.5 kmh 29.67 in1004.7 mb 0.00 in0.0 mm 0.00 in0.0 mm 0.00 in0.0 mm
02:06 PM 73.2°F22.9°C 51.2°F10.7°C 46% 4.0 mph E6.4 kmh E 14.0 mph22.5 kmh 29.68 in1005.1 mb 0.00 in0.0 mm 0.00 in0.0 mm 0.00 in0.0 mm
02:04 PM 73.4°F23.0°C 50.2°F10.1°C 44% 4.0 mph E6.4 kmh E 14.0 mph22.5 kmh 29.68 in1005.1 mb 0.00 in0.0 mm 0.00 in0.0 mm 0.00 in0.0 mm
02:02 PM 73.2°F22.9°C 50.6°F10.3°C 45% 4.0 mph E6.4 kmh E 14.0 mph22.5 kmh 29.68 in1005.1 mb 0.00 in0.0 mm 0.00 in0.0 mm 0.00 in0.0 mm
02:00 PM 72.9°F22.7°C 49.7°F9.8°C 46% 3.0 mph E4.8 kmh E 12.0 mph19.3 kmh 29.68 in1005.1 mb 0.00 in0.0 mm 0.00 in0.0 mm 0.00 in0.0 mm
01:58 PM 73.0°F22.8°C 49.8°F9.9°C 44% 3.0 mph E4.8 kmh E 12.0 mph19.3 kmh 29.68 in1005.1 mb 0.00 in0.0 mm 0.00 in0.0 mm 0.00 in0.0 mm
01:56 PM 72.9°F22.7°C 49.7°F9.8°C 44% 3.0 mph E4.8 kmh E 12.0 mph19.3 kmh 29.68 in1005.1 mb 0.00 in0.0 mm 0.00 in0.0 mm 0.00 in0.0 mm
01:54 PM 72.7°F22.6°C 50.7°F10.4°C 46% 3.0 mph E4.8 kmh E 12.0 mph19.3 kmh 29.68 in1005.1 mb 0.00 in0.0 mm 0.00 in0.0 mm 0.00 in0.0 mm
01:52 PM 72.3°F22.4°C 51.0°F10.6°C 47% 3.0 mph E4.8 kmh E 11.0 mph17.7 kmh 29.68 in1005.1 mb 0.00 in0.0 mm 0.00 in0.0 mm 0.00 in0.0 mm
01:50 PM 72.1°F22.3°C 50.8°F10.4°C 47% 3.0 mph E4.8 kmh E 13.0 mph20.9 kmh 29.68 in1005.1 mb 0.00 in0.0 mm 0.00 in0.0 mm 0.00 in0.0 mm
01:48 PM 71.6°F22.0°C 51.4°F10.8°C 49% 3.0 mph E4.8 kmh E 13.0 mph20.9 kmh 29.68 in1005.1 mb 0.00 in0.0 mm 0.00 in0.0 mm 0.00 in0.0 mm
01:46 PM 71.2°F21.8°C 50.0°F10.0°C 47% 3.0 mph E4.8 kmh E 13.0 mph20.9 kmh 29.68 in1005.1 mb 0.00 in0.0 mm 0.00 in0.0 mm 0.00 in0.0 mm
01:44 PM 71.1°F21.7°C 48.6°F9.2°C 45% 3.0 mph E4.8 kmh E 13.0 mph20.9 kmh 29.68 in1005.1 mb 0.00 in0.0 mm 0.00 in0.0 mm 0.00 in0.0 mm
01:42 PM 70.9°F21.6°C 48.5°F9.2°C 45% 3.0 mph E4.8 kmh E 13.0 mph20.9 kmh 29.68 in1005.1 mb 0.00 in0.0 mm 0.00 in0.0 mm 0.00 in0.0 mm
01:40 PM 70.9°F21.6°C 49.1°F9.5°C 46% 3.0 mph E4.8 kmh E 13.0 mph20.9 kmh 29.68 in1005.1 mb 0.00 in0.0 mm 0.00 in0.0 mm 0.00 in0.0 mm
01:38 PM 71.2°F21.8°C 49.4°F9.7°C 46% 2.0 mph E3.2 kmh E 13.0 mph20.9 kmh 29.68 in1005.1 mb 0.00 in0.0 mm 0.00 in0.0 mm 0.00 in0.0 mm
01:36 PM 71.2°F21.8°C 50.0°F10.0°C 47% 2.0 mph E3.2 kmh E 13.0 mph20.9 kmh 29.68 in1005.1 mb 0.00 in0.0 mm 0.00 in0.0 mm 0.00 in0.0 mm
01:34 PM 71.2°F21.8°C 50.0°F10.0°C 47% 2.0 mph E3.2 kmh E 13.0 mph20.9 kmh 29.68 in1005.1 mb 0.00 in0.0 mm 0.00 in0.0 mm 0.00 in0.0 mm
01:32 PM 71.4°F21.9°C 49.0°F9.4°C 45% 2.0 mph E3.2 kmh E 13.0 mph20.9 kmh 29.68 in1005.1 mb 0.00 in0.0 mm 0.00 in0.0 mm 0.00 in0.0 mm
01:30 PM 71.8°F22.1°C 49.9°F9.9°C 46% 3.0 mph E4.8 kmh E 12.0 mph19.3 kmh 29.68 in1005.1 mb 0.00 in0.0 mm 0.00 in0.0 mm 0.00 in0.0 mm
01:28 PM 71.8°F22.1°C 49.9°F9.9°C 46% 3.0 mph E4.8 kmh E 12.0 mph19.3 kmh 29.68 in1005.1 mb 0.00 in0.0 mm 0.00 in0.0 mm 0.00 in0.0 mm
01:26 PM 71.4°F21.9°C 50.1°F10.1°C 47% 3.0 mph E4.8 kmh E 12.0 mph19.3 kmh 29.69 in1005.4 mb 0.00 in0.0 mm 0.00 in0.0 mm 0.00 in0.0 mm
01:24 PM 71.2°F21.8°C 49.4°F9.7°C 46% 3.0 mph E4.8 kmh E 12.0 mph19.3 kmh 29.68 in1005.1 mb 0.00 in0.0 mm 0.00 in0.0 mm 0.00 in0.0 mm
01:22 PM 71.1°F21.7°C 49.8°F9.9°C 47% 3.0 mph E4.8 kmh E 12.0 mph19.3 kmh 29.68 in1005.1 mb 0.00 in0.0 mm 0.00 in0.0 mm 0.00 in0.0 mm
01:20 PM 71.2°F21.8°C 48.8°F9.3°C 45% 3.0 mph E4.8 kmh E 13.0 mph20.9 kmh 29.69 in1005.4 mb 0.00 in0.0 mm 0.00 in0.0 mm 0.00 in0.0 mm
01:18 PM 71.4°F21.9°C 49.0°F9.4°C 45% 3.0 mph E4.8 kmh E 13.0 mph20.9 kmh 29.68 in1005.1 mb 0.00 in0.0 mm 0.00 in0.0 mm 0.00 in0.0 mm
01:16 PM 71.4°F21.9°C 50.1°F10.1°C 47% 3.0 mph E4.8 kmh E 13.0 mph20.9 kmh 29.68 in1005.1 mb 0.00 in0.0 mm 0.00 in0.0 mm 0.00 in0.0 mm
01:14 PM 71.4°F21.9°C 49.6°F9.8°C 46% 3.0 mph E4.8 kmh E 13.0 mph20.9 kmh 29.69 in1005.4 mb 0.00 in0.0 mm 0.00 in0.0 mm 0.00 in0.0 mm
01:12 PM 71.4°F21.9°C 49.6°F9.8°C 46% 3.0 mph E4.8 kmh E 13.0 mph20.9 kmh 29.69 in1005.4 mb 0.00 in0.0 mm 0.00 in0.0 mm 0.00 in0.0 mm
01:10 PM 71.8°F22.1°C 50.5°F10.3°C 47% 3.0 mph E4.8 kmh E 13.0 mph20.9 kmh 29.68 in1005.1 mb 0.00 in0.0 mm 0.00 in0.0 mm 0.00 in0.0 mm
01:08 PM 71.6°F22.0°C 50.3°F10.2°C 47% 3.0 mph E4.8 kmh E 13.0 mph20.9 kmh 29.69 in1005.4 mb 0.00 in0.0 mm 0.00 in0.0 mm 0.00 in0.0 mm
01:06 PM 71.4°F21.9°C 49.6°F9.8°C 46% 2.0 mph E3.2 kmh E 13.0 mph20.9 kmh 29.69 in1005.4 mb 0.00 in0.0 mm 0.00 in0.0 mm 0.00 in0.0 mm
01:04 PM 71.4°F21.9°C 50.7°F10.4°C 48% 2.0 mph E3.2 kmh E 13.0 mph20.9 kmh 29.69 in1005.4 mb 0.00 in0.0 mm 0.00 in0.0 mm 0.00 in0.0 mm
01:02 PM 71.4°F21.9°C 50.7°F10.4°C 48% 2.0 mph E3.2 kmh E 13.0 mph20.9 kmh 29.69 in1005.4 mb 0.00 in0.0 mm 0.00 in0.0 mm 0.00 in0.0 mm
01:00 PM 71.1°F21.7°C 50.4°F10.2°C 48% 3.0 mph ENE4.8 kmh ENE 11.0 mph17.7 kmh 29.69 in1005.4 mb 0.00 in0.0 mm 0.00 in0.0 mm 0.00 in0.0 mm
12:58 PM 70.9°F21.6°C 49.6°F9.8°C 47% 3.0 mph E4.8 kmh E 11.0 mph17.7 kmh 29.69 in1005.4 mb 0.00 in0.0 mm 0.00 in0.0 mm 0.00 in0.0 mm
12:56 PM 70.9°F21.6°C 49.6°F9.8°C 47% 4.0 mph E6.4 kmh E 10.0 mph16.1 kmh 29.68 in1005.1 mb 0.00 in0.0 mm 0.00 in0.0 mm 0.00 in0.0 mm
12:54 PM 70.9°F21.6°C 50.2°F10.1°C 48% 4.0 mph E6.4 kmh E 15.0 mph24.1 kmh 29.68 in1005.1 mb 0.00 in0.0 mm 0.00 in0.0 mm 0.00 in0.0 mm
12:52 PM 70.9°F21.6°C 50.2°F10.1°C 48% 4.0 mph ESE6.4 kmh ESE 15.0 mph24.1 kmh 29.69 in1005.4 mb 0.00 in0.0 mm 0.00 in0.0 mm 0.00 in0.0 mm
12:50 PM 70.7°F21.5°C 50.0°F10.0°C 48% 4.0 mph ESE6.4 kmh ESE 15.0 mph24.1 kmh 29.69 in1005.4 mb 0.00 in0.0 mm 0.00 in0.0 mm 0.00 in0.0 mm
12:48 PM 70.7°F21.5°C 50.0°F10.0°C 48% 4.0 mph ESE6.4 kmh ESE 15.0 mph24.1 kmh 29.69 in1005.4 mb 0.00 in0.0 mm 0.00 in0.0 mm 0.00 in0.0 mm
12:46 PM 70.5°F21.4°C 49.9°F9.9°C 48% 4.0 mph ESE6.4 kmh ESE 15.0 mph24.1 kmh 29.69 in1005.4 mb 0.00 in0.0 mm 0.00 in0.0 mm 0.00 in0.0 mm
12:44 PM 70.2°F21.2°C 50.6°F10.3°C 50% 4.0 mph ESE6.4 kmh ESE 15.0 mph24.1 kmh 29.69 in1005.4 mb 0.00 in0.0 mm 0.00 in0.0 mm 0.00 in0.0 mm
12:42 PM 70.0°F21.1°C 49.9°F9.9°C 49% 4.0 mph ESE6.4 kmh ESE 15.0 mph24.1 kmh 29.69 in1005.4 mb 0.00 in0.0 mm 0.00 in0.0 mm 0.00 in0.0 mm
12:40 PM 70.0°F21.1°C 49.9°F9.9°C 49% 3.0 mph ESE4.8 kmh ESE 15.0 mph24.1 kmh 29.69 in1005.4 mb 0.00 in0.0 mm 0.00 in0.0 mm 0.00 in0.0 mm
12:38 PM 69.6°F20.9°C 50.2°F10.1°C 50% 3.0 mph E4.8 kmh E 13.0 mph20.9 kmh 29.69 in1005.4 mb 0.00 in0.0 mm 0.00 in0.0 mm 0.00 in0.0 mm
12:36 PM 69.1°F20.6°C 50.7°F10.4°C 52% 3.0 mph E4.8 kmh E 13.0 mph20.9 kmh 29.69 in1005.4 mb 0.00 in0.0 mm 0.00 in0.0 mm 0.00 in0.0 mm
12:34 PM 69.1°F20.6°C 49.7°F9.8°C 50% 3.0 mph E4.8 kmh E 13.0 mph20.9 kmh 29.70 in1005.8 mb 0.00 in0.0 mm 0.00 in0.0 mm 0.00 in0.0 mm
12:32 PM 68.9°F20.5°C 48.9°F9.4°C 49% 3.0 mph E4.8 kmh E 13.0 mph20.9 kmh 29.69 in1005.4 mb 0.00 in0.0 mm 0.00 in0.0 mm 0.00 in0.0 mm
12:30 PM 68.9°F20.5°C 49.5°F9.7°C 50% 3.0 mph E4.8 kmh E 14.0 mph22.5 kmh 29.69 in1005.4 mb 0.00 in0.0 mm 0.00 in0.0 mm 0.00 in0.0 mm
12:28 PM 69.1°F20.6°C 48.6°F9.2°C 48% 3.0 mph E4.8 kmh E 14.0 mph22.5 kmh 29.69 in1005.4 mb 0.00 in0.0 mm 0.00 in0.0 mm 0.00 in0.0 mm
12:26 PM 69.3°F20.7°C 49.3°F9.6°C 49% 3.0 mph E4.8 kmh E 14.0 mph22.5 kmh 29.69 in1005.4 mb 0.00 in0.0 mm 0.00 in0.0 mm 0.00 in0.0 mm
12:24 PM 69.4°F20.8°C 50.0°F10.0°C 50% 3.0 mph E4.8 kmh E 14.0 mph22.5 kmh 29.69 in1005.4 mb 0.00 in0.0 mm 0.00 in0.0 mm 0.00 in0.0 mm
12:22 PM 69.1°F20.6°C 51.2°F10.7°C 53% 3.0 mph E4.8 kmh E 14.0 mph22.5 kmh 29.69 in1005.4 mb 0.00 in0.0 mm 0.00 in0.0 mm 0.00 in0.0 mm
12:20 PM 68.5°F20.3°C 49.7°F9.8°C 51% 3.0 mph E4.8 kmh E 9.0 mph14.5 kmh 29.69 in1005.4 mb 0.00 in0.0 mm 0.00 in0.0 mm 0.00 in0.0 mm
12:18 PM 68.7°F20.4°C 49.9°F9.9°C 51% 3.0 mph E4.8 kmh E 10.0 mph16.1 kmh 29.69 in1005.4 mb 0.00 in0.0 mm 0.00 in0.0 mm 0.00 in0.0 mm
12:16 PM 68.7°F20.4°C 49.9°F9.9°C 51% 3.0 mph E4.8 kmh E 10.0 mph16.1 kmh 29.69 in1005.4 mb 0.00 in0.0 mm 0.00 in0.0 mm 0.00 in0.0 mm
12:14 PM 69.1°F20.6°C 49.1°F9.5°C 49% 3.0 mph E4.8 kmh E 14.0 mph22.5 kmh 29.69 in1005.4 mb 0.00 in0.0 mm 0.00 in0.0 mm 0.00 in0.0 mm
12:12 PM 69.1°F20.6°C 50.7°F10.4°C 52% 3.0 mph E4.8 kmh E 14.0 mph22.5 kmh 29.69 in1005.4 mb 0.00 in0.0 mm 0.00 in0.0 mm 0.00 in0.0 mm
12:10 PM 68.7°F20.4°C 49.9°F9.9°C 51% 3.0 mph E4.8 kmh E 12.0 mph19.3 kmh 29.69 in1005.4 mb 0.00 in0.0 mm 0.00 in0.0 mm 0.00 in0.0 mm
12:08 PM 68.7°F20.4°C 49.9°F9.9°C 51% 3.0 mph E4.8 kmh E 10.0 mph16.1 kmh 29.69 in1005.4 mb 0.00 in0.0 mm 0.00 in0.0 mm 0.00 in0.0 mm
12:06 PM 68.7°F20.4°C 50.4°F10.2°C 52% 3.0 mph E4.8 kmh E 10.0 mph16.1 kmh 29.70 in1005.8 mb 0.00 in0.0 mm 0.00 in0.0 mm 0.00 in0.0 mm
12:04 PM 68.7°F20.4°C 50.4°F10.2°C 52% 3.0 mph E4.8 kmh E 10.0 mph16.1 kmh 29.69 in1005.4 mb 0.00 in0.0 mm 0.00 in0.0 mm 0.00 in0.0 mm
12:02 PM 68.9°F20.5°C 51.1°F10.6°C 53% 3.0 mph E4.8 kmh E 10.0 mph16.1 kmh 29.69 in1005.4 mb 0.00 in0.0 mm 0.00 in0.0 mm 0.00 in0.0 mm
12:00 PM 68.7°F20.4°C 49.9°F9.9°C 51% 3.0 mph E4.8 kmh E 10.0 mph16.1 kmh 29.70 in1005.8 mb 0.00 in0.0 mm 0.00 in0.0 mm 0.00 in0.0 mm
11:58 AM 68.5°F20.3°C 49.7°F9.8°C 51% 3.0 mph SE4.8 kmh SE 10.0 mph16.1 kmh 29.70 in1005.8 mb 0.00 in0.0 mm 0.00 in0.0 mm 0.00 in0.0 mm
11:56 AM 68.4°F20.2°C 49.5°F9.7°C 51% 3.0 mph SE4.8 kmh SE 10.0 mph16.1 kmh 29.69 in1005.4 mb 0.00 in0.0 mm 0.00 in0.0 mm 0.00 in0.0 mm
11:54 AM 68.4°F20.2°C 49.5°F9.7°C 51% 3.0 mph E4.8 kmh E 8.0 mph12.9 kmh 29.70 in1005.8 mb 0.00 in0.0 mm 0.00 in0.0 mm 0.00 in0.0 mm
11:52 AM 68.0°F20.0°C 50.2°F10.1°C 53% 2.0 mph E3.2 kmh E 10.0 mph16.1 kmh 29.70 in1005.8 mb 0.00 in0.0 mm 0.00 in0.0 mm 0.00 in0.0 mm
11:50 AM 67.6°F19.8°C 49.9°F9.9°C 53% 2.0 mph E3.2 kmh E 10.0 mph16.1 kmh 29.69 in1005.4 mb 0.00 in0.0 mm 0.00 in0.0 mm 0.00 in0.0 mm
11:48 AM 67.5°F19.7°C 49.7°F9.8°C 53% 2.0 mph E3.2 kmh E 8.0 mph12.9 kmh 29.70 in1005.8 mb 0.00 in0.0 mm 0.00 in0.0 mm 0.00 in0.0 mm
11:46 AM 67.1°F19.5°C 49.9°F9.9°C 54% 3.0 mph E4.8 kmh E 10.0 mph16.1 kmh 29.70 in1005.8 mb 0.00 in0.0 mm 0.00 in0.0 mm 0.00 in0.0 mm
11:44 AM 67.1°F19.5°C 48.9°F9.4°C 52% 3.0 mph E4.8 kmh E 11.0 mph17.7 kmh 29.70 in1005.8 mb 0.00 in0.0 mm 0.00 in0.0 mm 0.00 in0.0 mm
11:42 AM 66.9°F19.4°C 50.2°F10.1°C 55% 3.0 mph E4.8 kmh E 11.0 mph17.7 kmh 29.70 in1005.8 mb 0.00 in0.0 mm 0.00 in0.0 mm 0.00 in0.0 mm
11:40 AM 66.7°F19.3°C 49.1°F9.5°C 53% 3.0 mph E4.8 kmh E 11.0 mph17.7 kmh 29.70 in1005.8 mb 0.00 in0.0 mm 0.00 in0.0 mm 0.00 in0.0 mm
11:38 AM 66.9°F19.4°C 48.7°F9.3°C 52% 3.0 mph E4.8 kmh E 11.0 mph17.7 kmh 29.70 in1005.8 mb 0.00 in0.0 mm 0.00 in0.0 mm 0.00 in0.0 mm
11:36 AM 66.9°F19.4°C 48.7°F9.3°C 52% 3.0 mph E4.8 kmh E 11.0 mph17.7 kmh 29.70 in1005.8 mb 0.00 in0.0 mm 0.00 in0.0 mm 0.00 in0.0 mm
11:34 AM 66.9°F19.4°C 48.7°F9.3°C 52% 3.0 mph E4.8 kmh E 11.0 mph17.7 kmh 29.70 in1005.8 mb 0.00 in0.0 mm 0.00 in0.0 mm 0.00 in0.0 mm
11:32 AM 66.9°F19.4°C 48.7°F9.3°C 52% 4.0 mph E6.4 kmh E 11.0 mph17.7 kmh 29.70 in1005.8 mb 0.00 in0.0 mm 0.00 in0.0 mm 0.00 in0.0 mm
11:30 AM 66.9°F19.4°C 49.7°F9.8°C 54% 4.0 mph E6.4 kmh E 10.0 mph16.1 kmh 29.70 in1005.8 mb 0.00 in0.0 mm 0.00 in0.0 mm 0.00 in0.0 mm
11:28 AM 66.4°F19.1°C 49.7°F9.8°C 55% 4.0 mph ESE6.4 kmh ESE 14.0 mph22.5 kmh 29.70 in1005.8 mb 0.00 in0.0 mm 0.00 in0.0 mm 0.00 in0.0 mm
11:26 AM 65.8°F18.8°C 49.2°F9.6°C 55% 4.0 mph E6.4 kmh E 14.0 mph22.5 kmh 29.70 in1005.8 mb 0.00 in0.0 mm 0.00 in0.0 mm 0.00 in0.0 mm
11:24 AM 65.8°F18.8°C 48.2°F9.0°C 53% 4.0 mph E6.4 kmh E 14.0 mph22.5 kmh 29.70 in1005.8 mb 0.00 in0.0 mm 0.00 in0.0 mm 0.00 in0.0 mm
11:22 AM 66.0°F18.9°C 48.4°F9.1°C 53% 4.0 mph E6.4 kmh E 14.0 mph22.5 kmh 29.70 in1005.8 mb 0.00 in0.0 mm 0.00 in0.0 mm 0.00 in0.0 mm
11:20 AM 66.2°F19.0°C 48.0°F8.9°C 52% 4.0 mph E6.4 kmh E 14.0 mph22.5 kmh 29.70 in1005.8 mb 0.00 in0.0 mm 0.00 in0.0 mm 0.00 in0.0 mm
11:18 AM 66.4°F19.1°C 48.7°F9.3°C 53% 4.0 mph E6.4 kmh E 14.0 mph22.5 kmh 29.70 in1005.8 mb 0.00 in0.0 mm 0.00 in0.0 mm 0.00 in0.0 mm
11:16 AM 66.6°F19.2°C 48.9°F9.4°C 53% 4.0 mph E6.4 kmh E 13.0 mph20.9 kmh 29.70 in1005.8 mb 0.00 in0.0 mm 0.00 in0.0 mm 0.00 in0.0 mm
11:14 AM 66.4°F19.1°C 49.7°F9.8°C 55% 4.0 mph E6.4 kmh E 13.0 mph20.9 kmh 29.70 in1005.8 mb 0.00 in0.0 mm 0.00 in0.0 mm 0.00 in0.0 mm
11:12 AM 66.0°F18.9°C 49.4°F9.7°C 55% 4.0 mph E6.4 kmh E 11.0 mph17.7 kmh 29.70 in1005.8 mb 0.00 in0.0 mm 0.00 in0.0 mm 0.00 in0.0 mm
11:10 AM 66.0°F18.9°C 49.4°F9.7°C 55% 4.0 mph E6.4 kmh E 11.0 mph17.7 kmh 29.70 in1005.8 mb 0.00 in0.0 mm 0.00 in0.0 mm 0.00 in0.0 mm
11:08 AM 65.8°F18.8°C 49.2°F9.6°C 55% 4.0 mph ESE6.4 kmh ESE 14.0 mph22.5 kmh 29.70 in1005.8 mb 0.00 in0.0 mm 0.00 in0.0 mm 0.00 in0.0 mm
11:06 AM 65.5°F18.6°C 50.3°F10.2°C 58% 3.0 mph E4.8 kmh E 14.0 mph22.5 kmh 29.70 in1005.8 mb 0.00 in0.0 mm 0.00 in0.0 mm 0.00 in0.0 mm
11:04 AM 64.9°F18.3°C 48.9°F9.4°C 56% 3.0 mph E4.8 kmh E 14.0 mph22.5 kmh 29.70 in1005.8 mb 0.00 in0.0 mm 0.00 in0.0 mm 0.00 in0.0 mm
11:02 AM 65.1°F18.4°C 49.0°F9.4°C 56% 3.0 mph E4.8 kmh E 14.0 mph22.5 kmh 29.70 in1005.8 mb 0.00 in0.0 mm 0.00 in0.0 mm 0.00 in0.0 mm
11:00 AM 65.1°F18.4°C 49.5°F9.7°C 57% 2.0 mph E3.2 kmh E 14.0 mph22.5 kmh 29.70 in1005.8 mb 0.00 in0.0 mm 0.00 in0.0 mm 0.00 in0.0 mm
10:58 AM 64.9°F18.3°C 48.4°F9.1°C 55% 2.0 mph E3.2 kmh E 11.0 mph17.7 kmh 29.70 in1005.8 mb 0.00 in0.0 mm 0.00 in0.0 mm 0.00 in0.0 mm
10:56 AM 65.1°F18.4°C 49.5°F9.7°C 57% 2.0 mph E3.2 kmh E 11.0 mph17.7 kmh 29.71 in1006.1 mb 0.00 in0.0 mm 0.00 in0.0 mm 0.00 in0.0 mm
10:54 AM 64.9°F18.3°C 48.4°F9.1°C 55% 2.0 mph E3.2 kmh E 11.0 mph17.7 kmh 29.70 in1005.8 mb 0.00 in0.0 mm 0.00 in0.0 mm 0.00 in0.0 mm
10:52 AM 65.3°F18.5°C 48.2°F9.0°C 54% 2.0 mph E3.2 kmh E 11.0 mph17.7 kmh 29.70 in1005.8 mb 0.00 in0.0 mm 0.00 in0.0 mm 0.00 in0.0 mm
10:50 AM 65.5°F18.6°C 49.8°F9.9°C 57% 2.0 mph E3.2 kmh E 11.0 mph17.7 kmh 29.71 in1006.1 mb 0.00 in0.0 mm 0.00 in0.0 mm 0.00 in0.0 mm
10:48 AM 65.3°F18.5°C 49.2°F9.6°C 56% 2.0 mph E3.2 kmh E 11.0 mph17.7 kmh 29.71 in1006.1 mb 0.00 in0.0 mm 0.00 in0.0 mm 0.00 in0.0 mm
10:46 AM 65.1°F18.4°C 50.0°F10.0°C 58% 2.0 mph E3.2 kmh E 11.0 mph17.7 kmh 29.70 in1005.8 mb 0.00 in0.0 mm 0.00 in0.0 mm 0.00 in0.0 mm
10:44 AM 64.9°F18.3°C 49.3°F9.6°C 57% 2.0 mph E3.2 kmh E 11.0 mph17.7 kmh 29.70 in1005.8 mb 0.00 in0.0 mm 0.00 in0.0 mm 0.00 in0.0 mm
10:42 AM 64.9°F18.3°C 50.7°F10.4°C 60% 2.0 mph E3.2 kmh E 11.0 mph17.7 kmh 29.71 in1006.1 mb 0.00 in0.0 mm 0.00 in0.0 mm 0.00 in0.0 mm
10:40 AM 64.6°F18.1°C 49.0°F9.4°C 57% 2.0 mph E3.2 kmh E 11.0 mph17.7 kmh 29.71 in1006.1 mb 0.00 in0.0 mm 0.00 in0.0 mm 0.00 in0.0 mm
10:38 AM 64.6°F18.1°C 48.5°F9.2°C 56% 2.0 mph E3.2 kmh E 11.0 mph17.7 kmh 29.71 in1006.1 mb 0.00 in0.0 mm 0.00 in0.0 mm 0.00 in0.0 mm
10:36 AM 64.8°F18.2°C 48.7°F9.3°C 56% 2.0 mph E3.2 kmh E 11.0 mph17.7 kmh 29.71 in1006.1 mb 0.00 in0.0 mm 0.00 in0.0 mm 0.00 in0.0 mm
10:34 AM 65.1°F18.4°C 50.4°F10.2°C 59% 2.0 mph ENE3.2 kmh ENE 11.0 mph17.7 kmh 29.71 in1006.1 mb 0.00 in0.0 mm 0.00 in0.0 mm 0.00 in0.0 mm
10:32 AM 65.1°F18.4°C 50.4°F10.2°C 59% 3.0 mph NE4.8 kmh NE 12.0 mph19.3 kmh 29.71 in1006.1 mb 0.00 in0.0 mm 0.00 in0.0 mm 0.00 in0.0 mm
10:30 AM 65.1°F18.4°C 51.3°F10.7°C 61% 3.0 mph NE4.8 kmh NE 12.0 mph19.3 kmh 29.71 in1006.1 mb 0.00 in0.0 mm 0.00 in0.0 mm 0.00 in0.0 mm
10:28 AM 64.8°F18.2°C 50.5°F10.3°C 60% 3.0 mph NE4.8 kmh NE 12.0 mph19.3 kmh 29.71 in1006.1 mb 0.00 in0.0 mm 0.00 in0.0 mm 0.00 in0.0 mm
10:26 AM 64.6°F18.1°C 50.4°F10.2°C 60% 3.0 mph NE4.8 kmh NE 12.0 mph19.3 kmh 29.71 in1006.1 mb 0.00 in0.0 mm 0.00 in0.0 mm 0.00 in0.0 mm
10:24 AM 64.2°F17.9°C 50.5°F10.3°C 61% 3.0 mph NE4.8 kmh NE 12.0 mph19.3 kmh 29.71 in1006.1 mb 0.00 in0.0 mm 0.00 in0.0 mm 0.00 in0.0 mm
10:22 AM 63.9°F17.7°C 51.0°F10.6°C 63% 3.0 mph NE4.8 kmh NE 11.0 mph17.7 kmh 29.71 in1006.1 mb 0.00 in0.0 mm 0.00 in0.0 mm 0.00 in0.0 mm
10:20 AM 63.3°F17.4°C 49.6°F9.8°C 61% 3.0 mph NE4.8 kmh NE 11.0 mph17.7 kmh 29.71 in1006.1 mb 0.00 in0.0 mm 0.00 in0.0 mm 0.00 in0.0 mm
10:18 AM 63.1°F17.3°C 49.5°F9.7°C 61% 3.0 mph NE4.8 kmh NE 11.0 mph17.7 kmh 29.71 in1006.1 mb 0.00 in0.0 mm 0.00 in0.0 mm 0.00 in0.0 mm
10:16 AM 62.8°F17.1°C 49.6°F9.8°C 62% 3.0 mph ENE4.8 kmh ENE 11.0 mph17.7 kmh 29.71 in1006.1 mb 0.00 in0.0 mm 0.00 in0.0 mm 0.00 in0.0 mm
10:14 AM 62.4°F16.9°C 50.1°F10.1°C 64% 3.0 mph ENE4.8 kmh ENE 13.0 mph20.9 kmh 29.71 in1006.1 mb 0.00 in0.0 mm 0.00 in0.0 mm 0.00 in0.0 mm
10:12 AM 62.1°F16.7°C 49.3°F9.6°C 63% 2.0 mph ENE3.2 kmh ENE 13.0 mph20.9 kmh 29.71 in1006.1 mb 0.00 in0.0 mm 0.00 in0.0 mm 0.00 in0.0 mm
10:10 AM 62.1°F16.7°C 48.9°F9.4°C 62% 2.0 mph E3.2 kmh E 13.0 mph20.9 kmh 29.71 in1006.1 mb 0.00 in0.0 mm 0.00 in0.0 mm 0.00 in0.0 mm
10:08 AM 61.9°F16.6°C 49.6°F9.8°C 64% 2.0 mph ENE3.2 kmh ENE 13.0 mph20.9 kmh 29.71 in1006.1 mb 0.00 in0.0 mm 0.00 in0.0 mm 0.00 in0.0 mm
10:06 AM 61.7°F16.5°C 49.8°F9.9°C 65% 2.0 mph ENE3.2 kmh ENE 13.0 mph20.9 kmh 29.71 in1006.1 mb 0.00 in0.0 mm 0.00 in0.0 mm 0.00 in0.0 mm
10:04 AM 61.5°F16.4°C 48.8°F9.3°C 63% 2.0 mph ENE3.2 kmh ENE 11.0 mph17.7 kmh 29.71 in1006.1 mb 0.00 in0.0 mm 0.00 in0.0 mm 0.00 in0.0 mm
10:02 AM 61.5°F16.4°C 49.2°F9.6°C 64% 2.0 mph ENE3.2 kmh ENE 11.0 mph17.7 kmh 29.71 in1006.1 mb 0.00 in0.0 mm 0.00 in0.0 mm 0.00 in0.0 mm
10:00 AM 61.0°F16.1°C 49.9°F9.9°C 67% 2.0 mph NE3.2 kmh NE 11.0 mph17.7 kmh 29.71 in1006.1 mb 0.00 in0.0 mm 0.00 in0.0 mm 0.00 in0.0 mm
09:58 AM 60.6°F15.9°C 49.2°F9.6°C 66% 2.0 mph NE3.2 kmh NE 11.0 mph17.7 kmh 29.71 in1006.1 mb 0.00 in0.0 mm 0.00 in0.0 mm 0.00 in0.0 mm
09:56 AM 60.4°F15.8°C 49.0°F9.4°C 66% 2.0 mph ENE3.2 kmh ENE 11.0 mph17.7 kmh 29.71 in1006.1 mb 0.00 in0.0 mm 0.00 in0.0 mm 0.00 in0.0 mm
09:54 AM 60.1°F15.6°C 49.1°F9.5°C 67% 2.0 mph NE3.2 kmh NE 11.0 mph17.7 kmh 29.71 in1006.1 mb 0.00 in0.0 mm 0.00 in0.0 mm 0.00 in0.0 mm
09:52 AM 59.7°F15.4°C 48.3°F9.1°C 66% 2.0 mph ENE3.2 kmh ENE 11.0 mph17.7 kmh 29.71 in1006.1 mb 0.00 in0.0 mm 0.00 in0.0 mm 0.00 in0.0 mm
09:50 AM 59.5°F15.3°C 48.6°F9.2°C 67% 2.0 mph ENE3.2 kmh ENE 11.0 mph17.7 kmh 29.71 in1006.1 mb 0.00 in0.0 mm 0.00 in0.0 mm 0.00 in0.0 mm
09:48 AM 59.4°F15.2°C 48.0°F8.9°C 66% 2.0 mph ENE3.2 kmh ENE 10.0 mph16.1 kmh 29.71 in1006.1 mb 0.00 in0.0 mm 0.00 in0.0 mm 0.00 in0.0 mm
09:46 AM 59.2°F15.1°C 47.8°F8.8°C 66% 2.0 mph NE3.2 kmh NE 10.0 mph16.1 kmh 29.71 in1006.1 mb 0.00 in0.0 mm 0.00 in0.0 mm 0.00 in0.0 mm
09:44 AM 59.4°F15.2°C 48.0°F8.9°C 66% 2.0 mph NE3.2 kmh NE 10.0 mph16.1 kmh 29.71 in1006.1 mb 0.00 in0.0 mm 0.00 in0.0 mm 0.00 in0.0 mm
09:42 AM 59.4°F15.2°C 48.4°F9.1°C 67% 2.0 mph NE3.2 kmh NE 9.0 mph14.5 kmh 29.71 in1006.1 mb 0.00 in0.0 mm 0.00 in0.0 mm 0.00 in0.0 mm
09:40 AM 59.2°F15.1°C 48.6°F9.2°C 68% 2.0 mph NE3.2 kmh NE 9.0 mph14.5 kmh 29.71 in1006.1 mb 0.00 in0.0 mm 0.00 in0.0 mm 0.00 in0.0 mm
09:38 AM 58.6°F14.8°C 48.9°F9.4°C 70% 2.0 mph ENE3.2 kmh ENE 11.0 mph17.7 kmh 29.71 in1006.1 mb 0.00 in0.0 mm 0.00 in0.0 mm 0.00 in0.0 mm
09:36 AM 58.3°F14.6°C 47.8°F8.8°C 68% 3.0 mph E4.8 kmh E 11.0 mph17.7 kmh 29.71 in1006.1 mb 0.00 in0.0 mm 0.00 in0.0 mm 0.00 in0.0 mm
09:34 AM 58.3°F14.6°C 48.2°F9.0°C 69% 3.0 mph E4.8 kmh E 11.0 mph17.7 kmh 29.71 in1006.1 mb 0.00 in0.0 mm 0.00 in0.0 mm 0.00 in0.0 mm
09:32 AM 58.3°F14.6°C 48.2°F9.0°C 69% 3.0 mph E4.8 kmh E 11.0 mph17.7 kmh 29.71 in1006.1 mb 0.00 in0.0 mm 0.00 in0.0 mm 0.00 in0.0 mm
09:30 AM 58.1°F14.5°C 47.6°F8.7°C 68% 2.0 mph E3.2 kmh E 11.0 mph17.7 kmh 29.71 in1006.1 mb 0.00 in0.0 mm 0.00 in0.0 mm 0.00 in0.0 mm
09:28 AM 58.1°F14.5°C 48.0°F8.9°C 69% 2.0 mph ENE3.2 kmh ENE 9.0 mph14.5 kmh 29.71 in1006.1 mb 0.00 in0.0 mm 0.00 in0.0 mm 0.00 in0.0 mm
09:26 AM 57.9°F14.4°C 48.6°F9.2°C 71% 2.0 mph ENE3.2 kmh ENE 10.0 mph16.1 kmh 29.71 in1006.1 mb 0.00 in0.0 mm 0.00 in0.0 mm 0.00 in0.0 mm
09:24 AM 57.7°F14.3°C 47.6°F8.7°C 69% 2.0 mph ENE3.2 kmh ENE 10.0 mph16.1 kmh 29.71 in1006.1 mb 0.00 in0.0 mm 0.00 in0.0 mm 0.00 in0.0 mm
09:22 AM 57.7°F14.3°C 48.4°F9.1°C 71% 2.0 mph ENE3.2 kmh ENE 10.0 mph16.1 kmh 29.70 in1005.8 mb 0.00 in0.0 mm 0.00 in0.0 mm 0.00 in0.0 mm
09:20 AM 57.6°F14.2°C 47.8°F8.8°C 70% 2.0 mph ENE3.2 kmh ENE 10.0 mph16.1 kmh 29.71 in1006.1 mb 0.00 in0.0 mm 0.00 in0.0 mm 0.00 in0.0 mm
09:18 AM 57.7°F14.3°C 48.0°F8.9°C 70% 2.0 mph E3.2 kmh E 10.0 mph16.1 kmh 29.70 in1005.8 mb 0.00 in0.0 mm 0.00 in0.0 mm 0.00 in0.0 mm
09:16 AM 57.7°F14.3°C 48.0°F8.9°C 70% 2.0 mph ENE3.2 kmh ENE 11.0 mph17.7 kmh 29.70 in1005.8 mb 0.00 in0.0 mm 0.00 in0.0 mm 0.00 in0.0 mm
09:14 AM 57.9°F14.4°C 48.2°F9.0°C 70% 2.0 mph ENE3.2 kmh ENE 11.0 mph17.7 kmh 29.70 in1005.8 mb 0.00 in0.0 mm 0.00 in0.0 mm 0.00 in0.0 mm
09:12 AM 57.7°F14.3°C 48.4°F9.1°C 71% 2.0 mph ENE3.2 kmh ENE 11.0 mph17.7 kmh 29.70 in1005.8 mb 0.00 in0.0 mm 0.00 in0.0 mm 0.00 in0.0 mm
09:10 AM 57.6°F14.2°C 49.0°F9.4°C 73% 2.0 mph ENE3.2 kmh ENE 11.0 mph17.7 kmh 29.70 in1005.8 mb 0.00 in0.0 mm 0.00 in0.0 mm 0.00 in0.0 mm
09:08 AM 57.0°F13.9°C 48.1°F8.9°C 72% 2.0 mph ENE3.2 kmh ENE 11.0 mph17.7 kmh 29.70 in1005.8 mb 0.00 in0.0 mm 0.00 in0.0 mm 0.00 in0.0 mm
09:06 AM 56.8°F13.8°C 47.9°F8.8°C 72% 2.0 mph E3.2 kmh E 10.0 mph16.1 kmh 29.70 in1005.8 mb 0.00 in0.0 mm 0.00 in0.0 mm 0.00 in0.0 mm
09:04 AM 56.7°F13.7°C 47.4°F8.6°C 71% 2.0 mph E3.2 kmh E 10.0 mph16.1 kmh 29.71 in1006.1 mb 0.00 in0.0 mm 0.00 in0.0 mm 0.00 in0.0 mm
09:02 AM 56.7°F13.7°C 47.4°F8.6°C 71% 2.0 mph E3.2 kmh E 10.0 mph16.1 kmh 29.70 in1005.8 mb 0.00 in0.0 mm 0.00 in0.0 mm 0.00 in0.0 mm
09:00 AM 56.7°F13.7°C 47.7°F8.7°C 72% 2.0 mph E3.2 kmh E 10.0 mph16.1 kmh 29.70 in1005.8 mb 0.00 in0.0 mm 0.00 in0.0 mm 0.00 in0.0 mm
08:58 AM 56.7°F13.7°C 47.7°F8.7°C 72% 2.0 mph ENE3.2 kmh ENE 10.0 mph16.1 kmh 29.70 in1005.8 mb 0.00 in0.0 mm 0.00 in0.0 mm 0.00 in0.0 mm
08:56 AM 56.5°F13.6°C 47.9°F8.8°C 73% 3.0 mph ENE4.8 kmh ENE 10.0 mph16.1 kmh 29.70 in1005.8 mb 0.00 in0.0 mm 0.00 in0.0 mm 0.00 in0.0 mm
08:54 AM 56.3°F13.5°C 47.4°F8.6°C 72% 3.0 mph ENE4.8 kmh ENE 10.0 mph16.1 kmh 29.70 in1005.8 mb 0.00 in0.0 mm 0.00 in0.0 mm 0.00 in0.0 mm
08:52 AM 56.3°F13.5°C 47.8°F8.8°C 73% 3.0 mph ENE4.8 kmh ENE 10.0 mph16.1 kmh 29.70 in1005.8 mb 0.00 in0.0 mm 0.00 in0.0 mm 0.00 in0.0 mm
08:50 AM 56.1°F13.4°C 47.6°F8.7°C 73% 3.0 mph ENE4.8 kmh ENE 10.0 mph16.1 kmh 29.70 in1005.8 mb 0.00 in0.0 mm 0.00 in0.0 mm 0.00 in0.0 mm
08:48 AM 55.8°F13.2°C 47.6°F8.7°C 74% 3.0 mph E4.8 kmh E 10.0 mph16.1 kmh 29.70 in1005.8 mb 0.00 in0.0 mm 0.00 in0.0 mm 0.00 in0.0 mm
08:46 AM 55.6°F13.1°C 47.4°F8.6°C 74% 3.0 mph E4.8 kmh E 10.0 mph16.1 kmh 29.70 in1005.8 mb 0.00 in0.0 mm 0.00 in0.0 mm 0.00 in0.0 mm
08:44 AM 55.4°F13.0°C 47.2°F8.4°C 74% 2.0 mph E3.2 kmh E 10.0 mph16.1 kmh 29.70 in1005.8 mb 0.00 in0.0 mm 0.00 in0.0 mm 0.00 in0.0 mm
08:42 AM 55.2°F12.9°C 46.7°F8.2°C 73% 2.0 mph E3.2 kmh E 10.0 mph16.1 kmh 29.70 in1005.8 mb 0.00 in0.0 mm 0.00 in0.0 mm 0.00 in0.0 mm
08:40 AM 55.2°F12.9°C 46.7°F8.2°C 73% 2.0 mph E3.2 kmh E 10.0 mph16.1 kmh 29.70 in1005.8 mb 0.00 in0.0 mm 0.00 in0.0 mm 0.00 in0.0 mm
08:38 AM 55.2°F12.9°C 47.4°F8.6°C 75% 2.0 mph E3.2 kmh E 10.0 mph16.1 kmh 29.70 in1005.8 mb 0.00 in0.0 mm 0.00 in0.0 mm 0.00 in0.0 mm
08:36 AM 55.2°F12.9°C 47.1°F8.4°C 74% 2.0 mph ENE3.2 kmh ENE 13.0 mph20.9 kmh 29.70 in1005.8 mb 0.00 in0.0 mm 0.00 in0.0 mm 0.00 in0.0 mm
08:34 AM 55.2°F12.9°C 47.4°F8.6°C 75% 2.0 mph E3.2 kmh E 13.0 mph20.9 kmh 29.70 in1005.8 mb 0.00 in0.0 mm 0.00 in0.0 mm 0.00 in0.0 mm
08:32 AM 55.2°F12.9°C 47.4°F8.6°C 75% 2.0 mph E3.2 kmh E 13.0 mph20.9 kmh 29.70 in1005.8 mb 0.00 in0.0 mm 0.00 in0.0 mm 0.00 in0.0 mm
08:30 AM 55.2°F12.9°C 47.4°F8.6°C 75% 2.0 mph ENE3.2 kmh ENE 13.0 mph20.9 kmh 29.70 in1005.8 mb 0.00 in0.0 mm 0.00 in0.0 mm 0.00 in0.0 mm
08:27 AM 55.2°F12.9°C 47.8°F8.8°C 76% 3.0 mph ENE4.8 kmh ENE 13.0 mph20.9 kmh 29.70 in1005.8 mb 0.00 in0.0 mm 0.00 in0.0 mm 0.00 in0.0 mm
08:26 AM 55.1°F12.8°C 47.7°F8.7°C 76% 2.0 mph ENE3.2 kmh ENE 13.0 mph20.9 kmh 29.70 in1005.8 mb 0.00 in0.0 mm 0.00 in0.0 mm 0.00 in0.0 mm
08:25 AM 54.9°F12.7°C 47.5°F8.6°C 76% 2.0 mph ENE3.2 kmh ENE 11.0 mph17.7 kmh 29.70 in1005.8 mb 0.00 in0.0 mm 0.00 in0.0 mm 0.00 in0.0 mm
08:24 AM 54.9°F12.7°C 47.5°F8.6°C 76% 2.0 mph ENE3.2 kmh ENE 11.0 mph17.7 kmh 29.70 in1005.8 mb 0.00 in0.0 mm 0.00 in0.0 mm 0.00 in0.0 mm
08:23 AM 54.4°F12.4°C 47.3°F8.5°C 77% 2.0 mph ENE3.2 kmh ENE 11.0 mph17.7 kmh 29.70 in1005.8 mb 0.00 in0.0 mm 0.00 in0.0 mm 0.00 in0.0 mm
08:22 AM 54.4°F12.4°C 47.3°F8.5°C 77% 2.0 mph ENE3.2 kmh ENE 7.0 mph11.3 kmh 29.70 in1005.8 mb 0.00 in0.0 mm 0.00 in0.0 mm 0.00 in0.0 mm
08:21 AM 54.4°F12.4°C 47.3°F8.5°C 77% 2.0 mph ENE3.2 kmh ENE 8.0 mph12.9 kmh 29.70 in1005.8 mb 0.00 in0.0 mm 0.00 in0.0 mm 0.00 in0.0 mm
08:19 AM 54.3°F12.4°C 46.9°F8.3°C 76% 2.0 mph NE3.2 kmh NE 8.0 mph12.9 kmh 29.70 in1005.8 mb 0.00 in0.0 mm 0.00 in0.0 mm 0.00 in0.0 mm
08:18 AM 54.1°F12.3°C 46.4°F8.0°C 75% 2.0 mph NE3.2 kmh NE 10.0 mph16.1 kmh 29.70 in1005.8 mb 0.00 in0.0 mm 0.00 in0.0 mm 0.00 in0.0 mm
08:16 AM 54.1°F12.3°C 46.4°F8.0°C 75% 2.0 mph NE3.2 kmh NE 8.0 mph12.9 kmh 29.70 in1005.8 mb 0.00 in0.0 mm 0.00 in0.0 mm 0.00 in0.0 mm
08:14 AM 54.3°F12.4°C 46.6°F8.1°C 75% 3.0 mph NE4.8 kmh NE 10.0 mph16.1 kmh 29.70 in1005.8 mb 0.00 in0.0 mm 0.00 in0.0 mm 0.00 in0.0 mm
08:12 AM 54.3°F12.4°C 46.9°F8.3°C 76% 3.0 mph NE4.8 kmh NE 10.0 mph16.1 kmh 29.70 in1005.8 mb 0.00 in0.0 mm 0.00 in0.0 mm 0.00 in0.0 mm
08:10 AM 54.1°F12.3°C 46.7°F8.2°C 76% 3.0 mph NE4.8 kmh NE 12.0 mph19.3 kmh 29.70 in1005.8 mb 0.00 in0.0 mm 0.00 in0.0 mm 0.00 in0.0 mm
08:08 AM 54.1°F12.3°C 46.7°F8.2°C 76% 3.0 mph NE4.8 kmh NE 12.0 mph19.3 kmh 29.70 in1005.8 mb 0.00 in0.0 mm 0.00 in0.0 mm 0.00 in0.0 mm
08:06 AM 54.1°F12.3°C 46.7°F8.2°C 76% 3.0 mph NE4.8 kmh NE 12.0 mph19.3 kmh 29.70 in1005.8 mb 0.00 in0.0 mm 0.00 in0.0 mm 0.00 in0.0 mm
08:04 AM 54.1°F12.3°C 47.1°F8.4°C 77% 2.0 mph NE3.2 kmh NE 12.0 mph19.3 kmh 29.70 in1005.8 mb 0.00 in0.0 mm 0.00 in0.0 mm 0.00 in0.0 mm
08:02 AM 54.0°F12.2°C 47.3°F8.5°C 78% 2.0 mph NE3.2 kmh NE 12.0 mph19.3 kmh 29.70 in1005.8 mb 0.00 in0.0 mm 0.00 in0.0 mm 0.00 in0.0 mm
08:00 AM 53.8°F12.1°C 47.1°F8.4°C 78% 2.0 mph NE3.2 kmh NE 10.0 mph16.1 kmh 29.70 in1005.8 mb 0.00 in0.0 mm 0.00 in0.0 mm 0.00 in0.0 mm
07:58 AM 53.8°F12.1°C 47.1°F8.4°C 78% 2.0 mph ENE3.2 kmh ENE 10.0 mph16.1 kmh 29.70 in1005.8 mb 0.00 in0.0 mm 0.00 in0.0 mm 0.00 in0.0 mm
07:56 AM 53.4°F11.9°C 46.4°F8.0°C 77% 2.0 mph ENE3.2 kmh ENE 10.0 mph16.1 kmh 29.69 in1005.4 mb 0.00 in0.0 mm 0.00 in0.0 mm 0.00 in0.0 mm
07:54 AM 53.4°F11.9°C 46.7°F8.2°C 78% 2.0 mph ENE3.2 kmh ENE 10.0 mph16.1 kmh 29.70 in1005.8 mb 0.00 in0.0 mm 0.00 in0.0 mm 0.00 in0.0 mm
07:52 AM 53.4°F11.9°C 46.7°F8.2°C 78% 2.0 mph ENE3.2 kmh ENE 12.0 mph19.3 kmh 29.70 in1005.8 mb 0.00 in0.0 mm 0.00 in0.0 mm 0.00 in0.0 mm
07:50 AM 53.4°F11.9°C 47.1°F8.4°C 79% 2.0 mph ENE3.2 kmh ENE 12.0 mph19.3 kmh 29.70 in1005.8 mb 0.00 in0.0 mm 0.00 in0.0 mm 0.00 in0.0 mm
07:48 AM 53.2°F11.8°C 46.9°F8.3°C 79% 2.0 mph ENE3.2 kmh ENE 12.0 mph19.3 kmh 29.70 in1005.8 mb 0.00 in0.0 mm 0.00 in0.0 mm 0.00 in0.0 mm
07:46 AM 53.1°F11.7°C 46.7°F8.2°C 79% 2.0 mph ENE3.2 kmh ENE 12.0 mph19.3 kmh 29.70 in1005.8 mb 0.00 in0.0 mm 0.00 in0.0 mm 0.00 in0.0 mm
07:44 AM 53.1°F11.7°C 47.1°F8.4°C 80% 2.0 mph ENE3.2 kmh ENE 12.0 mph19.3 kmh 29.70 in1005.8 mb 0.00 in0.0 mm 0.00 in0.0 mm 0.00 in0.0 mm
07:42 AM 52.9°F11.6°C 46.5°F8.1°C 79% 2.0 mph ENE3.2 kmh ENE 12.0 mph19.3 kmh 29.69 in1005.4 mb 0.00 in0.0 mm 0.00 in0.0 mm 0.00 in0.0 mm
07:40 AM 52.7°F11.5°C 46.7°F8.2°C 80% 2.0 mph NE3.2 kmh NE 12.0 mph19.3 kmh 29.70 in1005.8 mb 0.00 in0.0 mm 0.00 in0.0 mm 0.00 in0.0 mm
07:38 AM 52.5°F11.4°C 46.5°F8.1°C 80% 2.0 mph ENE3.2 kmh ENE 11.0 mph17.7 kmh 29.70 in1005.8 mb 0.00 in0.0 mm 0.00 in0.0 mm 0.00 in0.0 mm
07:36 AM 52.5°F11.4°C 46.2°F7.9°C 79% 2.0 mph ENE3.2 kmh ENE 10.0 mph16.1 kmh 29.70 in1005.8 mb 0.00 in0.0 mm 0.00 in0.0 mm 0.00 in0.0 mm
07:34 AM 52.3°F11.3°C 46.4°F8.0°C 80% 2.0 mph ENE3.2 kmh ENE 10.0 mph16.1 kmh 29.69 in1005.4 mb 0.00 in0.0 mm 0.00 in0.0 mm 0.00 in0.0 mm
07:32 AM 52.3°F11.3°C 46.4°F8.0°C 80% 2.0 mph ENE3.2 kmh ENE 10.0 mph16.1 kmh 29.69 in1005.4 mb 0.00 in0.0 mm 0.00 in0.0 mm 0.00 in0.0 mm
07:30 AM 52.2°F11.2°C 46.5°F8.1°C 81% 2.0 mph E3.2 kmh E 10.0 mph16.1 kmh 29.69 in1005.4 mb 0.00 in0.0 mm 0.00 in0.0 mm 0.00 in0.0 mm
07:28 AM 52.0°F11.1°C 46.3°F7.9°C 81% 2.0 mph ENE3.2 kmh ENE 10.0 mph16.1 kmh 29.69 in1005.4 mb 0.00 in0.0 mm 0.00 in0.0 mm 0.00 in0.0 mm
07:26 AM 52.0°F11.1°C 46.3°F7.9°C 81% 2.0 mph ENE3.2 kmh ENE 10.0 mph16.1 kmh 29.69 in1005.4 mb 0.00 in0.0 mm 0.00 in0.0 mm 0.00 in0.0 mm
07:24 AM 51.8°F11.0°C 46.2°F7.9°C 81% 2.0 mph ENE3.2 kmh ENE 13.0 mph20.9 kmh 29.69 in1005.4 mb 0.00 in0.0 mm 0.00 in0.0 mm 0.00 in0.0 mm
07:22 AM 51.6°F10.9°C 46.3°F7.9°C 82% 2.0 mph ENE3.2 kmh ENE 13.0 mph20.9 kmh 29.69 in1005.4 mb 0.00 in0.0 mm 0.00 in0.0 mm 0.00 in0.0 mm
07:20 AM 51.4°F10.8°C 46.1°F7.8°C 82% 1.0 mph ENE1.6 kmh ENE 13.0 mph20.9 kmh 29.69 in1005.4 mb 0.00 in0.0 mm 0.00 in0.0 mm 0.00 in0.0 mm
07:18 AM 51.4°F10.8°C 46.1°F7.8°C 82% 1.0 mph ENE1.6 kmh ENE 13.0 mph20.9 kmh 29.69 in1005.4 mb 0.00 in0.0 mm 0.00 in0.0 mm 0.00 in0.0 mm
07:16 AM 51.3°F10.7°C 46.0°F7.8°C 82% 1.0 mph ENE1.6 kmh ENE 13.0 mph20.9 kmh 29.69 in1005.4 mb 0.00 in0.0 mm 0.00 in0.0 mm 0.00 in0.0 mm
07:14 AM 51.3°F10.7°C 46.0°F7.8°C 82% 2.0 mph ENE3.2 kmh ENE 10.0 mph16.1 kmh 29.69 in1005.4 mb 0.00 in0.0 mm 0.00 in0.0 mm 0.00 in0.0 mm
07:12 AM 51.3°F10.7°C 46.0°F7.8°C 82% 2.0 mph ENE3.2 kmh ENE 10.0 mph16.1 kmh 29.69 in1005.4 mb 0.00 in0.0 mm 0.00 in0.0 mm 0.00 in0.0 mm
07:10 AM 51.1°F10.6°C 45.8°F7.7°C 82% 2.0 mph ENE3.2 kmh ENE 10.0 mph16.1 kmh 29.69 in1005.4 mb 0.00 in0.0 mm 0.00 in0.0 mm 0.00 in0.0 mm
07:08 AM 51.1°F10.6°C 46.1°F7.8°C 83% 2.0 mph ENE3.2 kmh ENE 9.0 mph14.5 kmh 29.69 in1005.4 mb 0.00 in0.0 mm 0.00 in0.0 mm 0.00 in0.0 mm
07:06 AM 50.9°F10.5°C 45.6°F7.6°C 82% 2.0 mph ENE3.2 kmh ENE 9.0 mph14.5 kmh 29.69 in1005.4 mb 0.00 in0.0 mm 0.00 in0.0 mm 0.00 in0.0 mm
07:04 AM 50.7°F10.4°C 45.7°F7.6°C 83% 2.0 mph ENE3.2 kmh ENE 9.0 mph14.5 kmh 29.69 in1005.4 mb 0.00 in0.0 mm 0.00 in0.0 mm 0.00 in0.0 mm
07:02 AM 50.7°F10.4°C 45.7°F7.6°C 83% 2.0 mph ENE3.2 kmh ENE 9.0 mph14.5 kmh 29.69 in1005.4 mb 0.00 in0.0 mm 0.00 in0.0 mm 0.00 in0.0 mm
07:00 AM 50.7°F10.4°C 46.1°F7.8°C 84% 2.0 mph ENE3.2 kmh ENE 9.0 mph14.5 kmh 29.68 in1005.1 mb 0.00 in0.0 mm 0.00 in0.0 mm 0.00 in0.0 mm
06:58 AM 50.5°F10.3°C 45.9°F7.7°C 84% 2.0 mph ENE3.2 kmh ENE 11.0 mph17.7 kmh 29.68 in1005.1 mb 0.00 in0.0 mm 0.00 in0.0 mm 0.00 in0.0 mm
06:56 AM 50.5°F10.3°C 45.9°F7.7°C 84% 2.0 mph ENE3.2 kmh ENE 11.0 mph17.7 kmh 29.68 in1005.1 mb 0.00 in0.0 mm 0.00 in0.0 mm 0.00 in0.0 mm
06:54 AM 50.4°F10.2°C 45.7°F7.6°C 84% 2.0 mph ENE3.2 kmh ENE 13.0 mph20.9 kmh 29.68 in1005.1 mb 0.00 in0.0 mm 0.00 in0.0 mm 0.00 in0.0 mm
06:52 AM 50.2°F10.1°C 45.5°F7.5°C 84% 2.0 mph ENE3.2 kmh ENE 13.0 mph20.9 kmh 29.68 in1005.1 mb 0.00 in0.0 mm 0.00 in0.0 mm 0.00 in0.0 mm
06:50 AM 50.2°F10.1°C 45.5°F7.5°C 84% 1.0 mph ENE1.6 kmh ENE 13.0 mph20.9 kmh 29.68 in1005.1 mb 0.00 in0.0 mm 0.00 in0.0 mm 0.00 in0.0 mm
06:48 AM 50.0°F10.0°C 45.7°F7.6°C 85% 1.0 mph ENE1.6 kmh ENE 13.0 mph20.9 kmh 29.68 in1005.1 mb 0.00 in0.0 mm 0.00 in0.0 mm 0.00 in0.0 mm
06:46 AM 49.8°F9.9°C 45.5°F7.5°C 85% 1.0 mph NE1.6 kmh NE 13.0 mph20.9 kmh 29.68 in1005.1 mb 0.00 in0.0 mm 0.00 in0.0 mm 0.00 in0.0 mm
06:44 AM 49.8°F9.9°C 45.5°F7.5°C 85% 1.0 mph NE1.6 kmh NE 8.0 mph12.9 kmh 29.68 in1005.1 mb 0.00 in0.0 mm 0.00 in0.0 mm 0.00 in0.0 mm
06:42 AM 49.8°F9.9°C 45.5°F7.5°C 85% 1.0 mph NE1.6 kmh NE 9.0 mph14.5 kmh 29.68 in1005.1 mb 0.00 in0.0 mm 0.00 in0.0 mm 0.00 in0.0 mm
06:40 AM 49.6°F9.8°C 45.6°F7.6°C 86% 1.0 mph NE1.6 kmh NE 11.0 mph17.7 kmh 29.68 in1005.1 mb 0.00 in0.0 mm 0.00 in0.0 mm 0.00 in0.0 mm
06:38 AM 49.5°F9.7°C 45.4°F7.4°C 86% 1.0 mph NE1.6 kmh NE 11.0 mph17.7 kmh 29.68 in1005.1 mb 0.00 in0.0 mm 0.00 in0.0 mm 0.00 in0.0 mm
06:36 AM 49.5°F9.7°C 45.4°F7.4°C 86% 1.0 mph NE1.6 kmh NE 11.0 mph17.7 kmh 29.68 in1005.1 mb 0.00 in0.0 mm 0.00 in0.0 mm 0.00 in0.0 mm
06:34 AM 49.3°F9.6°C 45.3°F7.4°C 86% 1.0 mph NE1.6 kmh NE 11.0 mph17.7 kmh 29.68 in1005.1 mb 0.00 in0.0 mm 0.00 in0.0 mm 0.00 in0.0 mm
06:32 AM 49.3°F9.6°C 45.6°F7.6°C 87% Calm Calm 11.0 mph17.7 kmh 29.68 in1005.1 mb 0.00 in0.0 mm 0.00 in0.0 mm 0.00 in0.0 mm
06:30 AM 49.1°F9.5°C 45.4°F7.4°C 87% Calm Calm 10.0 mph16.1 kmh 29.68 in1005.1 mb 0.00 in0.0 mm 0.00 in0.0 mm 0.00 in0.0 mm
06:28 AM 48.9°F9.4°C 45.2°F7.3°C 87% Calm Calm 10.0 mph16.1 kmh 29.68 in1005.1 mb 0.00 in0.0 mm 0.00 in0.0 mm 0.00 in0.0 mm
06:26 AM 48.7°F9.3°C 45.0°F7.2°C 87% Calm Calm 10.0 mph16.1 kmh 29.68 in1005.1 mb 0.00 in0.0 mm 0.00 in0.0 mm 0.00 in0.0 mm
06:24 AM 48.7°F9.3°C 45.3°F7.4°C 88% Calm Calm 3.0 mph4.8 kmh 29.68 in1005.1 mb 0.00 in0.0 mm 0.00 in0.0 mm 0.00 in0.0 mm
06:22 AM 48.6°F9.2°C 45.2°F7.3°C 88% Calm Calm 2.0 mph3.2 kmh 29.68 in1005.1 mb 0.00 in0.0 mm 0.00 in0.0 mm 0.00 in0.0 mm
06:20 AM 48.6°F9.2°C 45.2°F7.3°C 88% 1.0 mph NE1.6 kmh NE 1.0 mph1.6 kmh 29.68 in1005.1 mb 0.00 in0.0 mm 0.00 in0.0 mm 0.00 in0.0 mm
06:16 AM 48.4°F9.1°C 45.0°F7.2°C 88% 1.0 mph ENE1.6 kmh ENE 9.0 mph14.5 kmh 29.68 in1005.1 mb 0.00 in0.0 mm 0.00 in0.0 mm 0.00 in0.0 mm
06:14 AM 48.4°F9.1°C 45.0°F7.2°C 88% 1.0 mph ENE1.6 kmh ENE 8.0 mph12.9 kmh 29.68 in1005.1 mb 0.00 in0.0 mm 0.00 in0.0 mm 0.00 in0.0 mm
06:12 AM 48.2°F9.0°C 44.8°F7.1°C 88% Calm Calm 8.0 mph12.9 kmh 29.68 in1005.1 mb 0.00 in0.0 mm 0.00 in0.0 mm 0.00 in0.0 mm
06:10 AM 48.2°F9.0°C 44.8°F7.1°C 88% Calm Calm 8.0 mph12.9 kmh 29.68 in1005.1 mb 0.00 in0.0 mm 0.00 in0.0 mm 0.00 in0.0 mm
06:08 AM 48.0°F8.9°C 44.6°F7.0°C 88% Calm Calm 8.0 mph12.9 kmh 29.68 in1005.1 mb 0.00 in0.0 mm 0.00 in0.0 mm 0.00 in0.0 mm
06:06 AM 48.0°F8.9°C 44.6°F7.0°C 88% Calm Calm 7.0 mph11.3 kmh 29.68 in1005.1 mb 0.00 in0.0 mm 0.00 in0.0 mm 0.00 in0.0 mm
06:04 AM 48.0°F8.9°C 44.6°F7.0°C 88% Calm Calm 7.0 mph11.3 kmh 29.67 in1004.7 mb 0.00 in0.0 mm 0.00 in0.0 mm 0.00 in0.0 mm
06:02 AM 48.0°F8.9°C 44.6°F7.0°C 88% Calm Calm 2.0 mph3.2 kmh 29.67 in1004.7 mb 0.00 in0.0 mm 0.00 in0.0 mm 0.00 in0.0 mm
06:00 AM 48.0°F8.9°C 44.6°F7.0°C 88% Calm Calm -- 29.67 in1004.7 mb 0.00 in0.0 mm 0.00 in0.0 mm 0.00 in0.0 mm
05:58 AM 48.0°F8.9°C 44.6°F7.0°C 88% Calm Calm -- 29.67 in1004.7 mb 0.00 in0.0 mm 0.00 in0.0 mm 0.00 in0.0 mm
05:54 AM 48.0°F8.9°C 44.6°F7.0°C 88% 1.0 mph E1.6 kmh E 9.0 mph14.5 kmh 29.68 in1005.1 mb 0.00 in0.0 mm 0.00 in0.0 mm 0.00 in0.0 mm
05:52 AM 47.8°F8.8°C 44.5°F6.9°C 88% 1.0 mph E1.6 kmh E 9.0 mph14.5 kmh 29.67 in1004.7 mb 0.00 in0.0 mm 0.00 in0.0 mm 0.00 in0.0 mm
05:50 AM 47.8°F8.8°C 44.5°F6.9°C 88% 1.0 mph E1.6 kmh E 9.0 mph14.5 kmh 29.67 in1004.7 mb 0.00 in0.0 mm 0.00 in0.0 mm 0.00 in0.0 mm
05:48 AM 47.8°F8.8°C 44.5°F6.9°C 88% 1.0 mph NE1.6 kmh NE 9.0 mph14.5 kmh 29.67 in1004.7 mb 0.00 in0.0 mm 0.00 in0.0 mm 0.00 in0.0 mm
05:46 AM 47.8°F8.8°C 44.5°F6.9°C 88% 1.0 mph NE1.6 kmh NE 9.0 mph14.5 kmh 29.67 in1004.7 mb 0.00 in0.0 mm 0.00 in0.0 mm 0.00 in0.0 mm
05:44 AM 47.8°F8.8°C 44.5°F6.9°C 88% 1.0 mph NE1.6 kmh NE 10.0 mph16.1 kmh 29.67 in1004.7 mb 0.00 in0.0 mm 0.00 in0.0 mm 0.00 in0.0 mm
05:42 AM 47.8°F8.8°C 44.5°F6.9°C 88% 1.0 mph NE1.6 kmh NE 10.0 mph16.1 kmh 29.67 in1004.7 mb 0.00 in0.0 mm 0.00 in0.0 mm 0.00 in0.0 mm
05:40 AM 47.8°F8.8°C 44.5°F6.9°C 88% 1.0 mph NE1.6 kmh NE 10.0 mph16.1 kmh 29.66 in1004.4 mb 0.00 in0.0 mm 0.00 in0.0 mm 0.00 in0.0 mm
05:38 AM 47.8°F8.8°C 44.5°F6.9°C 88% 1.0 mph ENE1.6 kmh ENE 10.0 mph16.1 kmh 29.67 in1004.7 mb 0.00 in0.0 mm 0.00 in0.0 mm 0.00 in0.0 mm
05:36 AM 47.8°F8.8°C 44.5°F6.9°C 88% 1.0 mph ENE1.6 kmh ENE 10.0 mph16.1 kmh 29.67 in1004.7 mb 0.00 in0.0 mm 0.00 in0.0 mm 0.00 in0.0 mm
05:34 AM 47.8°F8.8°C 44.5°F6.9°C 88% 1.0 mph ENE1.6 kmh ENE 6.0 mph9.7 kmh 29.67 in1004.7 mb 0.00 in0.0 mm 0.00 in0.0 mm 0.00 in0.0 mm
05:32 AM 47.8°F8.8°C 44.5°F6.9°C 88% 1.0 mph ENE1.6 kmh ENE 7.0 mph11.3 kmh 29.67 in1004.7 mb 0.00 in0.0 mm 0.00 in0.0 mm 0.00 in0.0 mm
05:30 AM 47.8°F8.8°C 44.5°F6.9°C 88% Calm Calm 7.0 mph11.3 kmh 29.66 in1004.4 mb 0.00 in0.0 mm 0.00 in0.0 mm 0.00 in0.0 mm
05:28 AM 47.8°F8.8°C 44.5°F6.9°C 88% Calm Calm 7.0 mph11.3 kmh 29.66 in1004.4 mb 0.00 in0.0 mm 0.00 in0.0 mm 0.00 in0.0 mm
05:26 AM 47.8°F8.8°C 44.5°F6.9°C 88% Calm Calm 7.0 mph11.3 kmh 29.66 in1004.4 mb 0.00 in0.0 mm 0.00 in0.0 mm 0.00 in0.0 mm
05:24 AM 47.8°F8.8°C 44.5°F6.9°C 88% Calm Calm 7.0 mph11.3 kmh 29.66 in1004.4 mb 0.00 in0.0 mm 0.00 in0.0 mm 0.00 in0.0 mm
05:22 AM 47.8°F8.8°C 44.5°F6.9°C 88% Calm Calm 3.0 mph4.8 kmh 29.66 in1004.4 mb 0.00 in0.0 mm 0.00 in0.0 mm 0.00 in0.0 mm
05:20 AM 47.8°F8.8°C 44.5°F6.9°C 88% Calm Calm -- 29.66 in1004.4 mb 0.00 in0.0 mm 0.00 in0.0 mm 0.00 in0.0 mm
05:18 AM 47.8°F8.8°C 44.5°F6.9°C 88% Calm Calm -- 29.66 in1004.4 mb 0.00 in0.0 mm 0.00 in0.0 mm 0.00 in0.0 mm
05:16 AM 47.8°F8.8°C 44.5°F6.9°C 88% Calm Calm 1.0 mph1.6 kmh 29.66 in1004.4 mb 0.00 in0.0 mm 0.00 in0.0 mm 0.00 in0.0 mm
05:14 AM 48.0°F8.9°C 44.6°F7.0°C 88% Calm Calm 2.0 mph3.2 kmh 29.66 in1004.4 mb 0.00 in0.0 mm 0.00 in0.0 mm 0.00 in0.0 mm
05:12 AM 48.0°F8.9°C 44.6°F7.0°C 88% Calm Calm 7.0 mph11.3 kmh 29.66 in1004.4 mb 0.00 in0.0 mm 0.00 in0.0 mm 0.00 in0.0 mm
05:10 AM 48.0°F8.9°C 44.6°F7.0°C 88% Calm Calm 7.0 mph11.3 kmh 29.66 in1004.4 mb 0.00 in0.0 mm 0.00 in0.0 mm 0.00 in0.0 mm
05:08 AM 48.0°F8.9°C 44.6°F7.0°C 88% Calm Calm 7.0 mph11.3 kmh 29.66 in1004.4 mb 0.00 in0.0 mm 0.00 in0.0 mm 0.00 in0.0 mm
05:06 AM 48.0°F8.9°C 44.6°F7.0°C 88% Calm Calm 7.0 mph11.3 kmh 29.66 in1004.4 mb 0.00 in0.0 mm 0.00 in0.0 mm 0.00 in0.0 mm
05:04 AM 48.0°F8.9°C 44.6°F7.0°C 88% Calm Calm 7.0 mph11.3 kmh 29.66 in1004.4 mb 0.00 in0.0 mm 0.00 in0.0 mm 0.00 in0.0 mm
05:02 AM 48.0°F8.9°C 44.6°F7.0°C 88% Calm Calm 7.0 mph11.3 kmh 29.66 in1004.4 mb 0.00 in0.0 mm 0.00 in0.0 mm 0.00 in0.0 mm
05:00 AM 48.0°F8.9°C 44.6°F7.0°C 88% Calm Calm 7.0 mph11.3 kmh 29.66 in1004.4 mb 0.00 in0.0 mm 0.00 in0.0 mm 0.00 in0.0 mm
04:58 AM 48.0°F8.9°C 44.6°F7.0°C 88% Calm Calm 7.0 mph11.3 kmh 29.66 in1004.4 mb 0.00 in0.0 mm 0.00 in0.0 mm 0.00 in0.0 mm
04:56 AM 47.8°F8.8°C 44.5°F6.9°C 88% 1.0 mph NE1.6 kmh NE 1.0 mph1.6 kmh 29.66 in1004.4 mb 0.00 in0.0 mm 0.00 in0.0 mm 0.00 in0.0 mm
04:54 AM 47.8°F8.8°C 44.5°F6.9°C 88% 1.0 mph NE1.6 kmh NE 5.0 mph8.0 kmh 29.66 in1004.4 mb 0.00 in0.0 mm 0.00 in0.0 mm 0.00 in0.0 mm
04:52 AM 47.8°F8.8°C 44.5°F6.9°C 88% 1.0 mph NE1.6 kmh NE 6.0 mph9.7 kmh 29.66 in1004.4 mb 0.00 in0.0 mm 0.00 in0.0 mm 0.00 in0.0 mm
04:50 AM 48.0°F8.9°C 44.6°F7.0°C 88% 1.0 mph NE1.6 kmh NE 6.0 mph9.7 kmh 29.66 in1004.4 mb 0.00 in0.0 mm 0.00 in0.0 mm 0.00 in0.0 mm
04:46 AM 48.0°F8.9°C 44.6°F7.0°C 88% 1.0 mph NE1.6 kmh NE 8.0 mph12.9 kmh 29.66 in1004.4 mb 0.00 in0.0 mm 0.00 in0.0 mm 0.00 in0.0 mm
04:44 AM 48.0°F8.9°C 44.6°F7.0°C 88% 1.0 mph NE1.6 kmh NE 8.0 mph12.9 kmh 29.66 in1004.4 mb 0.00 in0.0 mm 0.00 in0.0 mm 0.00 in0.0 mm
04:42 AM 48.0°F8.9°C 44.3°F6.8°C 87% 1.0 mph NE1.6 kmh NE 9.0 mph14.5 kmh 29.66 in1004.4 mb 0.00 in0.0 mm 0.00 in0.0 mm 0.00 in0.0 mm
04:40 AM 48.0°F8.9°C 44.3°F6.8°C 87% 1.0 mph ENE1.6 kmh ENE 9.0 mph14.5 kmh 29.66 in1004.4 mb 0.00 in0.0 mm 0.00 in0.0 mm 0.00 in0.0 mm
04:38 AM 48.0°F8.9°C 44.3°F6.8°C 87% 1.0 mph ENE1.6 kmh ENE 9.0 mph14.5 kmh 29.65 in1004.1 mb 0.00 in0.0 mm 0.00 in0.0 mm 0.00 in0.0 mm
04:36 AM 48.0°F8.9°C 44.3°F6.8°C 87% 1.0 mph ENE1.6 kmh ENE 9.0 mph14.5 kmh 29.66 in1004.4 mb 0.00 in0.0 mm 0.00 in0.0 mm 0.00 in0.0 mm
04:34 AM 48.0°F8.9°C 44.6°F7.0°C 88% 1.0 mph ENE1.6 kmh ENE 9.0 mph14.5 kmh 29.65 in1004.1 mb 0.00 in0.0 mm 0.00 in0.0 mm 0.00 in0.0 mm
04:32 AM 48.0°F8.9°C 44.3°F6.8°C 87% Calm Calm 9.0 mph14.5 kmh 29.66 in1004.4 mb 0.00 in0.0 mm 0.00 in0.0 mm 0.00 in0.0 mm
04:30 AM 48.0°F8.9°C 44.3°F6.8°C 87% 1.0 mph E1.6 kmh E 9.0 mph14.5 kmh 29.65 in1004.1 mb 0.00 in0.0 mm 0.00 in0.0 mm 0.00 in0.0 mm
04:28 AM 48.0°F8.9°C 44.3°F6.8°C 87% 1.0 mph ENE1.6 kmh ENE 8.0 mph12.9 kmh 29.65 in1004.1 mb 0.00 in0.0 mm 0.00 in0.0 mm 0.00 in0.0 mm
04:26 AM 48.0°F8.9°C 44.3°F6.8°C 87% 1.0 mph ENE1.6 kmh ENE 8.0 mph12.9 kmh 29.65 in1004.1 mb 0.00 in0.0 mm 0.00 in0.0 mm 0.00 in0.0 mm
04:24 AM 48.0°F8.9°C 44.3°F6.8°C 87% 1.0 mph E1.6 kmh E 7.0 mph11.3 kmh 29.65 in1004.1 mb 0.00 in0.0 mm 0.00 in0.0 mm 0.00 in0.0 mm
04:22 AM 48.0°F8.9°C 44.3°F6.8°C 87% 1.0 mph E1.6 kmh E 7.0 mph11.3 kmh 29.65 in1004.1 mb 0.00 in0.0 mm 0.00 in0.0 mm 0.00 in0.0 mm
04:20 AM 48.0°F8.9°C 44.3°F6.8°C 87% 1.0 mph E1.6 kmh E 9.0 mph14.5 kmh 29.65 in1004.1 mb 0.00 in0.0 mm 0.00 in0.0 mm 0.00 in0.0 mm
04:18 AM 48.0°F8.9°C 44.3°F6.8°C 87% 1.0 mph E1.6 kmh E 9.0 mph14.5 kmh 29.65 in1004.1 mb 0.00 in0.0 mm 0.00 in0.0 mm 0.00 in0.0 mm
04:16 AM 48.0°F8.9°C 44.3°F6.8°C 87% 1.0 mph E1.6 kmh E 9.0 mph14.5 kmh 29.65 in1004.1 mb 0.00 in0.0 mm 0.00 in0.0 mm 0.00 in0.0 mm
04:14 AM 48.0°F8.9°C 44.3°F6.8°C 87% 1.0 mph E1.6 kmh E 9.0 mph14.5 kmh 29.65 in1004.1 mb 0.00 in0.0 mm 0.00 in0.0 mm 0.00 in0.0 mm
04:12 AM 48.0°F8.9°C 44.3°F6.8°C 87% 1.0 mph E1.6 kmh E 9.0 mph14.5 kmh 29.65 in1004.1 mb 0.00 in0.0 mm 0.00 in0.0 mm 0.00 in0.0 mm
04:10 AM 48.0°F8.9°C 44.3°F6.8°C 87% 1.0 mph ENE1.6 kmh ENE 9.0 mph14.5 kmh 29.65 in1004.1 mb 0.00 in0.0 mm 0.00 in0.0 mm 0.00 in0.0 mm
04:08 AM 48.0°F8.9°C 44.3°F6.8°C 87% Calm Calm 8.0 mph12.9 kmh 29.65 in1004.1 mb 0.00 in0.0 mm 0.00 in0.0 mm 0.00 in0.0 mm
04:06 AM 48.0°F8.9°C 44.3°F6.8°C 87% 1.0 mph E1.6 kmh E 8.0 mph12.9 kmh 29.65 in1004.1 mb 0.00 in0.0 mm 0.00 in0.0 mm 0.00 in0.0 mm
04:04 AM 48.0°F8.9°C 44.3°F6.8°C 87% 1.0 mph E1.6 kmh E 8.0 mph12.9 kmh 29.65 in1004.1 mb 0.00 in0.0 mm 0.00 in0.0 mm 0.00 in0.0 mm
04:02 AM 48.2°F9.0°C 44.5°F6.9°C 87% 1.0 mph ENE1.6 kmh ENE 8.0 mph12.9 kmh 29.65 in1004.1 mb 0.00 in0.0 mm 0.00 in0.0 mm 0.00 in0.0 mm
04:00 AM 48.2°F9.0°C 44.5°F6.9°C 87% 1.0 mph ENE1.6 kmh ENE 8.0 mph12.9 kmh 29.65 in1004.1 mb 0.00 in0.0 mm 0.00 in0.0 mm 0.00 in0.0 mm
03:58 AM 48.2°F9.0°C 44.5°F6.9°C 87% 1.0 mph NE1.6 kmh NE 6.0 mph9.7 kmh 29.65 in1004.1 mb 0.00 in0.0 mm 0.00 in0.0 mm 0.00 in0.0 mm
03:56 AM 48.4°F9.1°C 44.7°F7.1°C 87% 1.0 mph ENE1.6 kmh ENE 10.0 mph16.1 kmh 29.65 in1004.1 mb 0.00 in0.0 mm 0.00 in0.0 mm 0.00 in0.0 mm
03:54 AM 48.4°F9.1°C 44.7°F7.1°C 87% 1.0 mph E1.6 kmh E 10.0 mph16.1 kmh 29.65 in1004.1 mb 0.00 in0.0 mm 0.00 in0.0 mm 0.00 in0.0 mm
03:52 AM 48.4°F9.1°C 44.7°F7.1°C 87% 1.0 mph E1.6 kmh E 10.0 mph16.1 kmh 29.65 in1004.1 mb 0.00 in0.0 mm 0.00 in0.0 mm 0.00 in0.0 mm
03:50 AM 48.4°F9.1°C 44.7°F7.1°C 87% 1.0 mph E1.6 kmh E 10.0 mph16.1 kmh 29.65 in1004.1 mb 0.00 in0.0 mm 0.00 in0.0 mm 0.00 in0.0 mm
03:48 AM 48.4°F9.1°C 44.7°F7.1°C 87% 1.0 mph E1.6 kmh E 10.0 mph16.1 kmh 29.65 in1004.1 mb 0.00 in0.0 mm 0.00 in0.0 mm 0.00 in0.0 mm
03:46 AM 48.4°F9.1°C 44.7°F7.1°C 87% 1.0 mph ENE1.6 kmh ENE 3.0 mph4.8 kmh 29.66 in1004.4 mb 0.00 in0.0 mm 0.00 in0.0 mm 0.00 in0.0 mm
03:44 AM 48.4°F9.1°C 44.7°F7.1°C 87% 1.0 mph E1.6 kmh E 1.0 mph1.6 kmh 29.65 in1004.1 mb 0.00 in0.0 mm 0.00 in0.0 mm 0.00 in0.0 mm
03:42 AM 48.4°F9.1°C 44.4°F6.9°C 86% 2.0 mph NE3.2 kmh NE 8.0 mph12.9 kmh 29.65 in1004.1 mb 0.00 in0.0 mm 0.00 in0.0 mm 0.00 in0.0 mm
03:40 AM 48.4°F9.1°C 44.4°F6.9°C 86% 2.0 mph ENE3.2 kmh ENE 9.0 mph14.5 kmh 29.65 in1004.1 mb 0.00 in0.0 mm 0.00 in0.0 mm 0.00 in0.0 mm
03:38 AM 48.6°F9.2°C 44.6°F7.0°C 86% 2.0 mph ENE3.2 kmh ENE 9.0 mph14.5 kmh 29.65 in1004.1 mb 0.00 in0.0 mm 0.00 in0.0 mm 0.00 in0.0 mm
03:36 AM 48.6°F9.2°C 44.6°F7.0°C 86% 2.0 mph ENE3.2 kmh ENE 9.0 mph14.5 kmh 29.65 in1004.1 mb 0.00 in0.0 mm 0.00 in0.0 mm 0.00 in0.0 mm
03:34 AM 48.6°F9.2°C 44.6°F7.0°C 86% 1.0 mph ENE1.6 kmh ENE 9.0 mph14.5 kmh 29.65 in1004.1 mb 0.00 in0.0 mm 0.00 in0.0 mm 0.00 in0.0 mm
03:32 AM 48.6°F9.2°C 44.6°F7.0°C 86% 1.0 mph ENE1.6 kmh ENE 9.0 mph14.5 kmh 29.65 in1004.1 mb 0.00 in0.0 mm 0.00 in0.0 mm 0.00 in0.0 mm
03:30 AM 48.6°F9.2°C 44.6°F7.0°C 86% 2.0 mph ENE3.2 kmh ENE 9.0 mph14.5 kmh 29.65 in1004.1 mb 0.00 in0.0 mm 0.00 in0.0 mm 0.00 in0.0 mm
03:28 AM 48.6°F9.2°C 44.6°F7.0°C 86% 2.0 mph E3.2 kmh E 9.0 mph14.5 kmh 29.65 in1004.1 mb 0.00 in0.0 mm 0.00 in0.0 mm 0.00 in0.0 mm
03:26 AM 48.6°F9.2°C 44.6°F7.0°C 86% 1.0 mph E1.6 kmh E 9.0 mph14.5 kmh 29.65 in1004.1 mb 0.00 in0.0 mm 0.00 in0.0 mm 0.00 in0.0 mm
03:24 AM 48.7°F9.3°C 44.7°F7.1°C 86% 1.0 mph E1.6 kmh E 15.0 mph24.1 kmh 29.65 in1004.1 mb 0.00 in0.0 mm 0.00 in0.0 mm 0.00 in0.0 mm
03:22 AM 48.6°F9.2°C 44.6°F7.0°C 86% 1.0 mph E1.6 kmh E 15.0 mph24.1 kmh 29.65 in1004.1 mb 0.00 in0.0 mm 0.00 in0.0 mm 0.00 in0.0 mm
03:20 AM 48.7°F9.3°C 44.7°F7.1°C 86% 1.0 mph E1.6 kmh E 15.0 mph24.1 kmh 29.65 in1004.1 mb 0.00 in0.0 mm 0.00 in0.0 mm 0.00 in0.0 mm
03:18 AM 48.7°F9.3°C 44.7°F7.1°C 86% 1.0 mph ENE1.6 kmh ENE 15.0 mph24.1 kmh 29.65 in1004.1 mb 0.00 in0.0 mm 0.00 in0.0 mm 0.00 in0.0 mm
03:16 AM 48.7°F9.3°C 44.7°F7.1°C 86% Calm Calm 15.0 mph24.1 kmh 29.65 in1004.1 mb 0.00 in0.0 mm 0.00 in0.0 mm 0.00 in0.0 mm
03:14 AM 48.7°F9.3°C 44.7°F7.1°C 86% Calm Calm 9.0 mph14.5 kmh 29.65 in1004.1 mb 0.00 in0.0 mm 0.00 in0.0 mm 0.00 in0.0 mm
03:12 AM 48.7°F9.3°C 44.7°F7.1°C 86% Calm Calm 9.0 mph14.5 kmh 29.65 in1004.1 mb 0.00 in0.0 mm 0.00 in0.0 mm 0.00 in0.0 mm
03:10 AM 48.7°F9.3°C 44.7°F7.1°C 86% Calm Calm 9.0 mph14.5 kmh 29.65 in1004.1 mb 0.00 in0.0 mm 0.00 in0.0 mm 0.00 in0.0 mm
03:08 AM 48.7°F9.3°C 44.7°F7.1°C 86% Calm Calm 9.0 mph14.5 kmh 29.65 in1004.1 mb 0.00 in0.0 mm 0.00 in0.0 mm 0.00 in0.0 mm
03:06 AM 48.7°F9.3°C 44.7°F7.1°C 86% Calm Calm 9.0 mph14.5 kmh 29.65 in1004.1 mb 0.00 in0.0 mm 0.00 in0.0 mm 0.00 in0.0 mm
03:04 AM 48.7°F9.3°C 44.7°F7.1°C 86% 1.0 mph ESE1.6 kmh ESE 3.0 mph4.8 kmh 29.65 in1004.1 mb 0.00 in0.0 mm 0.00 in0.0 mm 0.00 in0.0 mm
03:02 AM 48.9°F9.4°C 44.9°F7.2°C 86% 1.0 mph E1.6 kmh E 8.0 mph12.9 kmh 29.65 in1004.1 mb 0.00 in0.0 mm 0.00 in0.0 mm 0.00 in0.0 mm
03:00 AM 48.9°F9.4°C 44.9°F7.2°C 86% 1.0 mph E1.6 kmh E 8.0 mph12.9 kmh 29.65 in1004.1 mb 0.00 in0.0 mm 0.00 in0.0 mm 0.00 in0.0 mm
02:58 AM 48.7°F9.3°C 44.7°F7.1°C 86% 1.0 mph ENE1.6 kmh ENE 9.0 mph14.5 kmh 29.65 in1004.1 mb 0.00 in0.0 mm 0.00 in0.0 mm 0.00 in0.0 mm
02:56 AM 48.9°F9.4°C 44.9°F7.2°C 86% 1.0 mph ENE1.6 kmh ENE 9.0 mph14.5 kmh 29.65 in1004.1 mb 0.00 in0.0 mm 0.00 in0.0 mm 0.00 in0.0 mm
02:54 AM 48.9°F9.4°C 44.9°F7.2°C 86% 2.0 mph ENE3.2 kmh ENE 9.0 mph14.5 kmh 29.65 in1004.1 mb 0.00 in0.0 mm 0.00 in0.0 mm 0.00 in0.0 mm
02:52 AM 48.9°F9.4°C 44.9°F7.2°C 86% 2.0 mph ENE3.2 kmh ENE 9.0 mph14.5 kmh 29.65 in1004.1 mb 0.00 in0.0 mm 0.00 in0.0 mm 0.00 in0.0 mm
02:50 AM 48.9°F9.4°C 44.9°F7.2°C 86% 2.0 mph E3.2 kmh E 11.0 mph17.7 kmh 29.65 in1004.1 mb 0.00 in0.0 mm 0.00 in0.0 mm 0.00 in0.0 mm
02:48 AM 48.9°F9.4°C 44.9°F7.2°C 86% 2.0 mph E3.2 kmh E 11.0 mph17.7 kmh 29.65 in1004.1 mb 0.00 in0.0 mm 0.00 in0.0 mm 0.00 in0.0 mm
02:46 AM 48.9°F9.4°C 44.9°F7.2°C 86% 2.0 mph E3.2 kmh E 11.0 mph17.7 kmh 29.65 in1004.1 mb 0.00 in0.0 mm 0.00 in0.0 mm 0.00 in0.0 mm
02:44 AM 48.9°F9.4°C 44.9°F7.2°C 86% 2.0 mph E3.2 kmh E 11.0 mph17.7 kmh 29.65 in1004.1 mb 0.00 in0.0 mm 0.00 in0.0 mm 0.00 in0.0 mm
02:42 AM 48.9°F9.4°C 44.9°F7.2°C 86% 2.0 mph E3.2 kmh E 11.0 mph17.7 kmh 29.65 in1004.1 mb 0.00 in0.0 mm 0.00 in0.0 mm 0.00 in0.0 mm
02:40 AM 48.9°F9.4°C 44.9°F7.2°C 86% 2.0 mph E3.2 kmh E 10.0 mph16.1 kmh 29.64 in1003.7 mb 0.00 in0.0 mm 0.00 in0.0 mm 0.00 in0.0 mm
02:38 AM 48.9°F9.4°C 44.9°F7.2°C 86% 2.0 mph E3.2 kmh E 10.0 mph16.1 kmh 29.65 in1004.1 mb 0.00 in0.0 mm 0.00 in0.0 mm 0.00 in0.0 mm
02:36 AM 48.9°F9.4°C 44.9°F7.2°C 86% 2.0 mph E3.2 kmh E 10.0 mph16.1 kmh 29.64 in1003.7 mb 0.00 in0.0 mm 0.00 in0.0 mm 0.00 in0.0 mm
02:34 AM 48.9°F9.4°C 44.9°F7.2°C 86% 2.0 mph E3.2 kmh E 9.0 mph14.5 kmh 29.64 in1003.7 mb 0.00 in0.0 mm 0.00 in0.0 mm 0.00 in0.0 mm
02:32 AM 48.9°F9.4°C 44.9°F7.2°C 86% 2.0 mph E3.2 kmh E 9.0 mph14.5 kmh 29.64 in1003.7 mb 0.00 in0.0 mm 0.00 in0.0 mm 0.00 in0.0 mm
02:30 AM 48.9°F9.4°C 44.9°F7.2°C 86% 2.0 mph E3.2 kmh E 14.0 mph22.5 kmh 29.65 in1004.1 mb 0.00 in0.0 mm 0.00 in0.0 mm 0.00 in0.0 mm
02:28 AM 48.9°F9.4°C 44.9°F7.2°C 86% 2.0 mph E3.2 kmh E 14.0 mph22.5 kmh 29.65 in1004.1 mb 0.00 in0.0 mm 0.00 in0.0 mm 0.00 in0.0 mm
02:26 AM 48.9°F9.4°C 44.6°F7.0°C 85% 2.0 mph E3.2 kmh E 14.0 mph22.5 kmh 29.64 in1003.7 mb 0.00 in0.0 mm 0.00 in0.0 mm 0.00 in0.0 mm
02:24 AM 48.9°F9.4°C 44.9°F7.2°C 86% 1.0 mph E1.6 kmh E 14.0 mph22.5 kmh 29.64 in1003.7 mb 0.00 in0.0 mm 0.00 in0.0 mm 0.00 in0.0 mm
02:22 AM 48.9°F9.4°C 44.6°F7.0°C 85% 1.0 mph E1.6 kmh E 14.0 mph22.5 kmh 29.64 in1003.7 mb 0.00 in0.0 mm 0.00 in0.0 mm 0.00 in0.0 mm
02:20 AM 48.9°F9.4°C 44.6°F7.0°C 85% 2.0 mph E3.2 kmh E 10.0 mph16.1 kmh 29.64 in1003.7 mb 0.00 in0.0 mm 0.00 in0.0 mm 0.00 in0.0 mm
02:18 AM 48.9°F9.4°C 44.6°F7.0°C 85% 2.0 mph E3.2 kmh E 10.0 mph16.1 kmh 29.64 in1003.7 mb 0.00 in0.0 mm 0.00 in0.0 mm 0.00 in0.0 mm
02:16 AM 48.9°F9.4°C 44.6°F7.0°C 85% 2.0 mph E3.2 kmh E 10.0 mph16.1 kmh 29.65 in1004.1 mb 0.00 in0.0 mm 0.00 in0.0 mm 0.00 in0.0 mm
02:14 AM 48.9°F9.4°C 44.6°F7.0°C 85% 2.0 mph E3.2 kmh E 10.0 mph16.1 kmh 29.64 in1003.7 mb 0.00 in0.0 mm 0.00 in0.0 mm 0.00 in0.0 mm
02:12 AM 48.9°F9.4°C 44.6°F7.0°C 85% 2.0 mph E3.2 kmh E 11.0 mph17.7 kmh 29.65 in1004.1 mb 0.00 in0.0 mm 0.00 in0.0 mm 0.00 in0.0 mm
02:10 AM 48.9°F9.4°C 44.6°F7.0°C 85% 1.0 mph E1.6 kmh E 11.0 mph17.7 kmh 29.65 in1004.1 mb 0.00 in0.0 mm 0.00 in0.0 mm 0.00 in0.0 mm
02:08 AM 48.9°F9.4°C 44.6°F7.0°C 85% 1.0 mph E1.6 kmh E 11.0 mph17.7 kmh 29.65 in1004.1 mb 0.00 in0.0 mm 0.00 in0.0 mm 0.00 in0.0 mm
02:06 AM 48.9°F9.4°C 44.6°F7.0°C 85% 1.0 mph E1.6 kmh E 12.0 mph19.3 kmh 29.65 in1004.1 mb 0.00 in0.0 mm 0.00 in0.0 mm 0.00 in0.0 mm
02:04 AM 48.9°F9.4°C 44.6°F7.0°C 85% 1.0 mph E1.6 kmh E 12.0 mph19.3 kmh 29.64 in1003.7 mb 0.00 in0.0 mm 0.00 in0.0 mm 0.00 in0.0 mm
02:02 AM 48.9°F9.4°C 44.6°F7.0°C 85% 1.0 mph E1.6 kmh E 12.0 mph19.3 kmh 29.64 in1003.7 mb 0.00 in0.0 mm 0.00 in0.0 mm 0.00 in0.0 mm
02:00 AM 48.9°F9.4°C 44.6°F7.0°C 85% 1.0 mph E1.6 kmh E 12.0 mph19.3 kmh 29.64 in1003.7 mb 0.00 in0.0 mm 0.00 in0.0 mm 0.00 in0.0 mm
01:58 AM 48.9°F9.4°C 44.6°F7.0°C 85% 2.0 mph E3.2 kmh E 12.0 mph19.3 kmh 29.64 in1003.7 mb 0.00 in0.0 mm 0.00 in0.0 mm 0.00 in0.0 mm
01:56 AM 48.9°F9.4°C 44.6°F7.0°C 85% 2.0 mph E3.2 kmh E 7.0 mph11.3 kmh 29.64 in1003.7 mb 0.00 in0.0 mm 0.00 in0.0 mm 0.00 in0.0 mm
01:54 AM 48.9°F9.4°C 44.9°F7.2°C 86% 2.0 mph E3.2 kmh E 9.0 mph14.5 kmh 29.64 in1003.7 mb 0.00 in0.0 mm 0.00 in0.0 mm 0.00 in0.0 mm
01:52 AM 48.9°F9.4°C 44.9°F7.2°C 86% 2.0 mph E3.2 kmh E 9.0 mph14.5 kmh 29.64 in1003.7 mb 0.00 in0.0 mm 0.00 in0.0 mm 0.00 in0.0 mm
01:50 AM 48.9°F9.4°C 44.9°F7.2°C 86% 2.0 mph E3.2 kmh E 9.0 mph14.5 kmh 29.64 in1003.7 mb 0.00 in0.0 mm 0.00 in0.0 mm 0.00 in0.0 mm
01:48 AM 48.9°F9.4°C 44.9°F7.2°C 86% 2.0 mph E3.2 kmh E 10.0 mph16.1 kmh 29.64 in1003.7 mb 0.00 in0.0 mm 0.00 in0.0 mm 0.00 in0.0 mm
01:46 AM 48.9°F9.4°C 44.6°F7.0°C 85% 2.0 mph E3.2 kmh E 10.0 mph16.1 kmh 29.64 in1003.7 mb 0.00 in0.0 mm 0.00 in0.0 mm 0.00 in0.0 mm
01:44 AM 48.9°F9.4°C 44.6°F7.0°C 85% 3.0 mph E4.8 kmh E 11.0 mph17.7 kmh 29.64 in1003.7 mb 0.00 in0.0 mm 0.00 in0.0 mm 0.00 in0.0 mm
01:42 AM 48.9°F9.4°C 44.6°F7.0°C 85% 3.0 mph E4.8 kmh E 11.0 mph17.7 kmh 29.64 in1003.7 mb 0.00 in0.0 mm 0.00 in0.0 mm 0.00 in0.0 mm
01:40 AM 48.9°F9.4°C 44.6°F7.0°C 85% 2.0 mph E3.2 kmh E 11.0 mph17.7 kmh 29.64 in1003.7 mb 0.00 in0.0 mm 0.00 in0.0 mm 0.00 in0.0 mm
01:38 AM 48.9°F9.4°C 44.6°F7.0°C 85% 2.0 mph E3.2 kmh E 11.0 mph17.7 kmh 29.64 in1003.7 mb 0.00 in0.0 mm 0.00 in0.0 mm 0.00 in0.0 mm
01:36 AM 48.9°F9.4°C 44.6°F7.0°C 85% 2.0 mph E3.2 kmh E 11.0 mph17.7 kmh 29.64 in1003.7 mb 0.00 in0.0 mm 0.00 in0.0 mm 0.00 in0.0 mm
01:34 AM 48.9°F9.4°C 44.6°F7.0°C 85% 2.0 mph E3.2 kmh E 10.0 mph16.1 kmh 29.64 in1003.7 mb 0.00 in0.0 mm 0.00 in0.0 mm 0.00 in0.0 mm
01:32 AM 48.9°F9.4°C 44.6°F7.0°C 85% 2.0 mph E3.2 kmh E 9.0 mph14.5 kmh 29.64 in1003.7 mb 0.00 in0.0 mm 0.00 in0.0 mm 0.00 in0.0 mm
01:30 AM 48.9°F9.4°C 44.6°F7.0°C 85% 2.0 mph E3.2 kmh E 9.0 mph14.5 kmh 29.64 in1003.7 mb 0.00 in0.0 mm 0.00 in0.0 mm 0.00 in0.0 mm
01:28 AM 48.9°F9.4°C 44.6°F7.0°C 85% 2.0 mph E3.2 kmh E 9.0 mph14.5 kmh 29.64 in1003.7 mb 0.00 in0.0 mm 0.00 in0.0 mm 0.00 in0.0 mm
01:26 AM 48.9°F9.4°C 44.6°F7.0°C 85% 2.0 mph ENE3.2 kmh ENE 9.0 mph14.5 kmh 29.64 in1003.7 mb 0.00 in0.0 mm 0.00 in0.0 mm 0.00 in0.0 mm
01:24 AM 48.9°F9.4°C 44.6°F7.0°C 85% 2.0 mph ENE3.2 kmh ENE 9.0 mph14.5 kmh 29.64 in1003.7 mb 0.00 in0.0 mm 0.00 in0.0 mm 0.00 in0.0 mm
01:22 AM 48.9°F9.4°C 44.6°F7.0°C 85% 2.0 mph ENE3.2 kmh ENE 9.0 mph14.5 kmh 29.64 in1003.7 mb 0.00 in0.0 mm 0.00 in0.0 mm 0.00 in0.0 mm
01:20 AM 48.9°F9.4°C 44.6°F7.0°C 85% 2.0 mph ENE3.2 kmh ENE 8.0 mph12.9 kmh 29.64 in1003.7 mb 0.00 in0.0 mm 0.00 in0.0 mm 0.00 in0.0 mm
01:18 AM 48.9°F9.4°C 44.6°F7.0°C 85% 3.0 mph ENE4.8 kmh ENE 11.0 mph17.7 kmh 29.64 in1003.7 mb 0.00 in0.0 mm 0.00 in0.0 mm 0.00 in0.0 mm
01:16 AM 48.9°F9.4°C 44.6°F7.0°C 85% 3.0 mph ENE4.8 kmh ENE 12.0 mph19.3 kmh 29.64 in1003.7 mb 0.00 in0.0 mm 0.00 in0.0 mm 0.00 in0.0 mm
01:14 AM 48.9°F9.4°C 44.6°F7.0°C 85% 3.0 mph ENE4.8 kmh ENE 12.0 mph19.3 kmh 29.64 in1003.7 mb 0.00 in0.0 mm 0.00 in0.0 mm 0.00 in0.0 mm
01:12 AM 48.9°F9.4°C 44.6°F7.0°C 85% 3.0 mph ENE4.8 kmh ENE 12.0 mph19.3 kmh 29.65 in1004.1 mb 0.00 in0.0 mm 0.00 in0.0 mm 0.00 in0.0 mm
01:10 AM 48.9°F9.4°C 44.6°F7.0°C 85% 3.0 mph ENE4.8 kmh ENE 12.0 mph19.3 kmh 29.65 in1004.1 mb 0.00 in0.0 mm 0.00 in0.0 mm 0.00 in0.0 mm
01:08 AM 49.1°F9.5°C 44.8°F7.1°C 85% 3.0 mph ENE4.8 kmh ENE 12.0 mph19.3 kmh 29.64 in1003.7 mb 0.00 in0.0 mm 0.00 in0.0 mm 0.00 in0.0 mm
01:06 AM 49.1°F9.5°C 44.8°F7.1°C 85% 3.0 mph ENE4.8 kmh ENE 12.0 mph19.3 kmh 29.64 in1003.7 mb 0.00 in0.0 mm 0.00 in0.0 mm 0.00 in0.0 mm
01:04 AM 49.1°F9.5°C 44.8°F7.1°C 85% 4.0 mph ENE6.4 kmh ENE 11.0 mph17.7 kmh 29.64 in1003.7 mb 0.00 in0.0 mm 0.00 in0.0 mm 0.00 in0.0 mm
01:02 AM 48.9°F9.4°C 44.6°F7.0°C 85% 4.0 mph ENE6.4 kmh ENE 11.0 mph17.7 kmh 29.65 in1004.1 mb 0.00 in0.0 mm 0.00 in0.0 mm 0.00 in0.0 mm
01:00 AM 49.1°F9.5°C 44.8°F7.1°C 85% 4.0 mph ENE6.4 kmh ENE 11.0 mph17.7 kmh 29.64 in1003.7 mb 0.00 in0.0 mm 0.00 in0.0 mm 0.00 in0.0 mm
12:58 AM 49.1°F9.5°C 44.8°F7.1°C 85% 3.0 mph ENE4.8 kmh ENE 14.0 mph22.5 kmh 29.64 in1003.7 mb 0.00 in0.0 mm 0.00 in0.0 mm 0.00 in0.0 mm
12:56 AM 49.3°F9.6°C 45.0°F7.2°C 85% 3.0 mph ENE4.8 kmh ENE 14.0 mph22.5 kmh 29.64 in1003.7 mb 0.00 in0.0 mm 0.00 in0.0 mm 0.00 in0.0 mm
12:54 AM 49.3°F9.6°C 45.0°F7.2°C 85% 3.0 mph E4.8 kmh E 14.0 mph22.5 kmh 29.64 in1003.7 mb 0.00 in0.0 mm 0.00 in0.0 mm 0.00 in0.0 mm
12:52 AM 49.1°F9.5°C 44.8°F7.1°C 85% 3.0 mph E4.8 kmh E 14.0 mph22.5 kmh 29.64 in1003.7 mb 0.00 in0.0 mm 0.00 in0.0 mm 0.00 in0.0 mm
12:50 AM 49.3°F9.6°C 45.0°F7.2°C 85% 3.0 mph ENE4.8 kmh ENE 14.0 mph22.5 kmh 29.64 in1003.7 mb 0.00 in0.0 mm 0.00 in0.0 mm 0.00 in0.0 mm
12:48 AM 49.3°F9.6°C 45.0°F7.2°C 85% 2.0 mph ENE3.2 kmh ENE 11.0 mph17.7 kmh 29.64 in1003.7 mb 0.00 in0.0 mm 0.00 in0.0 mm 0.00 in0.0 mm
12:46 AM 49.3°F9.6°C 45.0°F7.2°C 85% 2.0 mph ENE3.2 kmh ENE 11.0 mph17.7 kmh 29.64 in1003.7 mb 0.00 in0.0 mm 0.00 in0.0 mm 0.00 in0.0 mm
12:44 AM 49.3°F9.6°C 45.0°F7.2°C 85% 2.0 mph ENE3.2 kmh ENE 11.0 mph17.7 kmh 29.64 in1003.7 mb 0.00 in0.0 mm 0.00 in0.0 mm 0.00 in0.0 mm
12:42 AM 49.3°F9.6°C 45.0°F7.2°C 85% 2.0 mph ENE3.2 kmh ENE 11.0 mph17.7 kmh 29.64 in1003.7 mb 0.00 in0.0 mm 0.00 in0.0 mm 0.00 in0.0 mm
12:40 AM 49.3°F9.6°C 45.0°F7.2°C 85% 2.0 mph ENE3.2 kmh ENE 10.0 mph16.1 kmh 29.64 in1003.7 mb 0.00 in0.0 mm 0.00 in0.0 mm 0.00 in0.0 mm
12:38 AM 49.3°F9.6°C 45.0°F7.2°C 85% 3.0 mph ENE4.8 kmh ENE 10.0 mph16.1 kmh 29.64 in1003.7 mb 0.00 in0.0 mm 0.00 in0.0 mm 0.00 in0.0 mm
12:36 AM 49.3°F9.6°C 45.0°F7.2°C 85% 3.0 mph ENE4.8 kmh ENE 11.0 mph17.7 kmh 29.64 in1003.7 mb 0.00 in0.0 mm 0.00 in0.0 mm 0.00 in0.0 mm
12:34 AM 49.3°F9.6°C 45.0°F7.2°C 85% 3.0 mph ENE4.8 kmh ENE 12.0 mph19.3 kmh 29.64 in1003.7 mb 0.00 in0.0 mm 0.00 in0.0 mm 0.00 in0.0 mm
12:32 AM 49.3°F9.6°C 45.0°F7.2°C 85% 2.0 mph ENE3.2 kmh ENE 12.0 mph19.3 kmh 29.65 in1004.1 mb 0.00 in0.0 mm 0.00 in0.0 mm 0.00 in0.0 mm
12:30 AM 49.3°F9.6°C 45.0°F7.2°C 85% 2.0 mph ENE3.2 kmh ENE 12.0 mph19.3 kmh 29.65 in1004.1 mb 0.00 in0.0 mm 0.00 in0.0 mm 0.00 in0.0 mm
12:28 AM 49.3°F9.6°C 45.0°F7.2°C 85% 1.0 mph ENE1.6 kmh ENE 12.0 mph19.3 kmh 29.64 in1003.7 mb 0.00 in0.0 mm 0.00 in0.0 mm 0.00 in0.0 mm
12:26 AM 49.3°F9.6°C 45.0°F7.2°C 85% 1.0 mph ENE1.6 kmh ENE 12.0 mph19.3 kmh 29.64 in1003.7 mb 0.00 in0.0 mm 0.00 in0.0 mm 0.00 in0.0 mm
12:24 AM 49.3°F9.6°C 45.0°F7.2°C 85% 1.0 mph ENE1.6 kmh ENE 10.0 mph16.1 kmh 29.65 in1004.1 mb 0.00 in0.0 mm 0.00 in0.0 mm 0.00 in0.0 mm
12:22 AM 49.3°F9.6°C 45.0°F7.2°C 85% 2.0 mph ENE3.2 kmh ENE 10.0 mph16.1 kmh 29.65 in1004.1 mb 0.00 in0.0 mm 0.00 in0.0 mm 0.00 in0.0 mm
12:20 AM 49.3°F9.6°C 45.0°F7.2°C 85% 2.0 mph ENE3.2 kmh ENE 10.0 mph16.1 kmh 29.65 in1004.1 mb 0.00 in0.0 mm 0.00 in0.0 mm 0.00 in0.0 mm
12:18 AM 49.3°F9.6°C 45.0°F7.2°C 85% 2.0 mph ENE3.2 kmh ENE 10.0 mph16.1 kmh 29.65 in1004.1 mb 0.00 in0.0 mm 0.00 in0.0 mm 0.00 in0.0 mm
12:16 AM 49.3°F9.6°C 45.0°F7.2°C 85% 2.0 mph ENE3.2 kmh ENE 10.0 mph16.1 kmh 29.64 in1003.7 mb 0.00 in0.0 mm 0.00 in0.0 mm 0.00 in0.0 mm
12:14 AM 49.3°F9.6°C 45.0°F7.2°C 85% 2.0 mph ENE3.2 kmh ENE 11.0 mph17.7 kmh 29.64 in1003.7 mb 0.00 in0.0 mm 0.00 in0.0 mm 0.00 in0.0 mm
12:12 AM 49.3°F9.6°C 45.0°F7.2°C 85% 2.0 mph ENE3.2 kmh ENE 11.0 mph17.7 kmh 29.64 in1003.7 mb 0.00 in0.0 mm 0.00 in0.0 mm 0.00 in0.0 mm
12:10 AM 49.3°F9.6°C 45.0°F7.2°C 85% 2.0 mph ENE3.2 kmh ENE 11.0 mph17.7 kmh 29.64 in1003.7 mb 0.00 in0.0 mm 0.00 in0.0 mm 0.00 in0.0 mm
12:08 AM 49.5°F9.7°C 45.1°F7.3°C 85% 1.0 mph ENE1.6 kmh ENE 11.0 mph17.7 kmh 29.64 in1003.7 mb 0.00 in0.0 mm 0.00 in0.0 mm 0.00 in0.0 mm
12:06 AM 49.3°F9.6°C 45.0°F7.2°C 85% 1.0 mph ENE1.6 kmh ENE 11.0 mph17.7 kmh 29.64 in1003.7 mb 0.00 in0.0 mm 0.00 in0.0 mm 0.00 in0.0 mm
12:04 AM 49.5°F9.7°C 45.1°F7.3°C 85% 2.0 mph ENE3.2 kmh ENE 8.0 mph12.9 kmh 29.64 in1003.7 mb 0.00 in0.0 mm 0.00 in0.0 mm 0.00 in0.0 mm
12:02 AM 49.5°F9.7°C 44.8°F7.1°C 84% 2.0 mph ENE3.2 kmh ENE 8.0 mph12.9 kmh 29.64 in1003.7 mb 0.00 in0.0 mm 0.00 in0.0 mm 0.00 in0.0 mm
12:00 AM 49.5°F9.7°C 44.8°F7.1°C 84% 2.0 mph E3.2 kmh E 6.0 mph9.7 kmh 29.64 in1003.7 mb 0.00 in0.0 mm 0.00 in0.0 mm 0.00 in0.0 mm